Observation data for Dell City 1N on 03/24/2019      Previous  Date  Next       Current Mesonet Observations  Soil Data  Daily Summary Page  Observations in Plain Language
KDC1 240500Z 29003KT 08/M03 A3007 RMK A01 T00831034  RH  044%=      5-min Rain = 0
KDC1 240501Z 29003KT 08/M04 A3007 RMK A01 T00821035  RH  044%=      5-min Rain = 0
KDC1 240502Z 30003KT 08/M04 A3007 RMK A01 T00811035  RH  044%=      5-min Rain = 0
KDC1 240503Z 29003KT 08/M03 A3007 RMK A01 T00801034  RH  045%=      5-min Rain = 0
KDC1 240504Z 29003KT 08/M03 A3007 RMK A01 T00801032  RH  045%=      5-min Rain = 0
KDC1 240505Z 29003KT 08/M03 A3007 RMK A01 T00811029  RH  046%=      5-min Rain = 0
KDC1 240506Z 30003KT 08/M03 A3007 RMK A01 T00831031  RH  045%=      5-min Rain = 0
KDC1 240507Z 31003KT 09/M03 A3007 RMK A01 T00851030  RH  044%=      5-min Rain = 0
KDC1 240508Z 31003KT 09/M03 A3007 RMK A01 T00871027  RH  045%=      5-min Rain = 0
KDC1 240509Z 31004KT 09/M03 A3007 RMK A01 T00871025  RH  045%=      5-min Rain = 0
KDC1 240510Z 31004KT 09/M03 A3007 RMK A01 T00871027  RH  045%=      5-min Rain = 0
KDC1 240511Z 31004KT 09/M03 A3007 RMK A01 T00871026  RH  045%=      5-min Rain = 0
KDC1 240512Z 32004KT 09/M02 A3007 RMK A01 T00881017  RH  048%=      5-min Rain = 0
KDC1 240513Z 32004KT 09/M01 A3007 RMK A01 T00891014  RH  048%=      5-min Rain = 0
KDC1 240514Z 32005KT 09/M01 A3007 RMK A01 T00901014  RH  048%=      5-min Rain = 0
KDC1 240515Z 31004KT 09/M01 A3007 RMK A01 T00901012  RH  049%=      5-min Rain = 0
KDC1 240516Z 31004KT 09/M02 A3007 RMK A01 T00891018  RH  047%=      5-min Rain = 0
KDC1 240517Z 31004KT 09/M02 A3007 RMK A01 T00901024  RH  045%=      5-min Rain = 0
KDC1 240518Z 31005KT 09/M02 A3007 RMK A01 T00911024  RH  045%=      5-min Rain = 0
KDC1 240519Z 32005KT 09/M02 A3007 RMK A01 T00911022  RH  045%=      5-min Rain = 0
KDC1 240520Z 32005KT 09/M02 A3007 RMK A01 T00891022  RH  046%=      5-min Rain = 0
KDC1 240521Z 32005KT 09/M03 A3007 RMK A01 T00851033  RH  043%=      5-min Rain = 0
KDC1 240522Z 32005KT 08/M04 A3007 RMK A01 T00821040  RH  042%=      5-min Rain = 0
KDC1 240523Z 32006KT 08/M04 A3007 RMK A01 T00791043  RH  042%=      5-min Rain = 0
KDC1 240524Z 33005KT 08/M04 A3007 RMK A01 T00781044  RH  042%=      5-min Rain = 0
KDC1 240525Z 33006KT 08/M04 A3007 RMK A01 T00771044  RH  042%=      5-min Rain = 0
KDC1 240526Z 33006KT 08/M04 A3007 RMK A01 T00771043  RH  042%=      5-min Rain = 0
KDC1 240527Z 33006KT 08/M04 A3007 RMK A01 T00761043  RH  043%=      5-min Rain = 0
KDC1 240528Z 32007KT 08/M04 A3007 RMK A01 T00771042  RH  043%=      5-min Rain = 0
KDC1 240529Z 32006KT 08/M04 A3007 RMK A01 T00771041  RH  043%=      5-min Rain = 0
KDC1 240530Z 32008KT 08/M04 A3007 RMK A01 T00771040  RH  043%=      5-min Rain = 0
KDC1 240531Z 32008KT 08/M04 A3007 RMK A01 T00771040  RH  043%=      5-min Rain = 0
KDC1 240532Z 32007KT 08/M04 A3007 RMK A01 T00781040  RH  043%=      5-min Rain = 0
KDC1 240533Z 32007KT 08/M04 A3007 RMK A01 T00791041  RH  042%=      5-min Rain = 0
KDC1 240534Z 33007KT 08/M04 A3007 RMK A01 T00811042  RH  042%=      5-min Rain = 0
KDC1 240535Z 33006KT 08/M04 A3007 RMK A01 T00831042  RH  041%=      5-min Rain = 0
KDC1 240536Z 33007KT 09/M04 A3007 RMK A01 T00851042  RH  041%=      5-min Rain = 0
KDC1 240537Z 33008KT 09/M04 A3007 RMK A01 T00871041  RH  040%=      5-min Rain = 0
KDC1 240538Z 33008KT 09/M04 A3007 RMK A01 T00881039  RH  040%=      5-min Rain = 0
KDC1 240539Z 33008KT 09/M04 A3007 RMK A01 T00881039  RH  041%=      5-min Rain = 0
KDC1 240540Z 33008KT 09/M04 A3007 RMK A01 T00881037  RH  041%=      5-min Rain = 0
KDC1 240541Z 33007KT 09/M04 A3007 RMK A01 T00891036  RH  041%=      5-min Rain = 0
KDC1 240542Z 33007KT 09/M04 A3007 RMK A01 T00881036  RH  042%=      5-min Rain = 0
KDC1 240543Z 33007KT 09/M04 A3007 RMK A01 T00871036  RH  042%=      5-min Rain = 0
KDC1 240544Z 33007KT 09/M04 A3007 RMK A01 T00871038  RH  041%=      5-min Rain = 0
KDC1 240545Z 33006KT 09/M04 A3007 RMK A01 T00871040  RH  040%=      5-min Rain = 0
KDC1 240546Z 33006KT 09/M04 A3007 RMK A01 T00881042  RH  039%=      5-min Rain = 0
KDC1 240547Z 33006KT 09/M04 A3007 RMK A01 T00891044  RH  039%=      5-min Rain = 0
KDC1 240548Z 33005KT 09/M05 A3007 RMK A01 T00901048  RH  037%=      5-min Rain = 0
KDC1 240549Z 33005KT 09/M05 A3007 RMK A01 T00921050  RH  036%=      5-min Rain = 0
KDC1 240550Z 33004KT 09/M05 A3007 RMK A01 T00941051  RH  035%=      5-min Rain = 0
KDC1 240551Z 35003KT 10/M05 A3007 RMK A01 T00951052  RH  035%=      5-min Rain = 0
KDC1 240552Z 36003KT 10/M05 A3007 RMK A01 T00961052  RH  035%=      5-min Rain = 0
KDC1 240553Z 00002KT 10/M05 A3007 RMK A01 T00971052  RH  035%=      5-min Rain = 0
KDC1 240554Z 02002KT 10/M05 A3007 RMK A01 T00981050  RH  035%=      5-min Rain = 0
KDC1 240555Z 03002KT 10/M05 A3007 RMK A01 T00991047  RH  036%=      5-min Rain = 0
KDC1 240556Z 03002KT 10/M05 A3007 RMK A01 T00991045  RH  036%=      5-min Rain = 0
KDC1 240557Z 03001KT 10/M05 A3007 RMK A01 T01001046  RH  036%=      5-min Rain = 0
KDC1 240558Z 06001KT 10/M04 A3007 RMK A01 T01001044  RH  036%=      5-min Rain = 0
KDC1 240559Z 12002KT 10/M04 A3007 RMK A01 T00961037  RH  039%=      5-min Rain = 0
KDC1 240600Z 15004KT 09/M03 A3007 RMK A01 T00881031  RH  043%=      5-min Rain = 0
KDC1 240601Z 15003KT 08/M03 A3007 RMK A01 T00821034  RH  044%=      5-min Rain = 0
KDC1 240602Z 17002KT 08/M04 A3007 RMK A01 T00811038  RH  043%=      5-min Rain = 0
KDC1 240603Z 19000KT 08/M04 A3007 RMK A01 T00831037  RH  043%=      5-min Rain = 0
KDC1 240604Z 00000KT 08/M04 A3007 RMK A01 T00841040  RH  041%=      5-min Rain = 0
KDC1 240605Z 26001KT 09/M05 A3007 RMK A01 T00861046  RH  039%=      5-min Rain = 0
KDC1 240606Z 23002KT 09/M04 A3007 RMK A01 T00891040  RH  040%=      5-min Rain = 0
KDC1 240607Z 27001KT 09/M04 A3007 RMK A01 T00911040  RH  040%=      5-min Rain = 0
KDC1 240608Z 27003KT 09/M05 A3007 RMK A01 T00931049  RH  036%=      5-min Rain = 0
KDC1 240609Z 26002KT 10/M05 A3007 RMK A01 T00981051  RH  035%=      5-min Rain = 0
KDC1 240610Z 26002KT 10/M05 A3007 RMK A01 T01021050  RH  034%=      5-min Rain = 0
KDC1 240611Z 27002KT 10/M05 A3007 RMK A01 T01041050  RH  034%=      5-min Rain = 0
KDC1 240612Z 27003KT 11/M05 A3007 RMK A01 T01051051  RH  033%=      5-min Rain = 0
KDC1 240613Z 27003KT 11/M05 A3007 RMK A01 T01061048  RH  034%=      5-min Rain = 0
KDC1 240614Z 28003KT 10/M04 A3007 RMK A01 T01041044  RH  035%=      5-min Rain = 0
KDC1 240615Z 29003KT 10/M04 A3007 RMK A01 T01001042  RH  037%=      5-min Rain = 0
KDC1 240616Z 31003KT 10/M04 A3007 RMK A01 T00981042  RH  037%=      5-min Rain = 0
KDC1 240617Z 31003KT 10/M04 A3007 RMK A01 T00981041  RH  037%=      5-min Rain = 0
KDC1 240618Z 31003KT 10/M04 A3007 RMK A01 T00971041  RH  037%=      5-min Rain = 0
KDC1 240619Z 31004KT 09/M04 A3007 RMK A01 T00941042  RH  038%=      5-min Rain = 0
KDC1 240620Z 31004KT 09/M04 A3007 RMK A01 T00921043  RH  038%=      5-min Rain = 0
KDC1 240621Z 31004KT 09/M04 A3007 RMK A01 T00901044  RH  038%=      5-min Rain = 0
KDC1 240622Z 31003KT 09/M05 A3007 RMK A01 T00901045  RH  038%=      5-min Rain = 0
KDC1 240623Z 31004KT 09/M04 A3007 RMK A01 T00881044  RH  039%=      5-min Rain = 0
KDC1 240624Z 31003KT 08/M04 A3007 RMK A01 T00841044  RH  040%=      5-min Rain = 0
KDC1 240625Z 31002KT 08/M04 A3007 RMK A01 T00821043  RH  041%=      5-min Rain = 0
KDC1 240626Z 30002KT 08/M04 A3007 RMK A01 T00791041  RH  042%=      5-min Rain = 0
KDC1 240627Z 28002KT 08/M04 A3007 RMK A01 T00771039  RH  043%=      5-min Rain = 0
KDC1 240628Z 26003KT 08/M04 A3007 RMK A01 T00791040  RH  043%=      5-min Rain = 0
KDC1 240629Z 25002KT 08/M04 A3007 RMK A01 T00811037  RH  043%=      5-min Rain = 0
KDC1 240630Z 24003KT 09/M04 A3007 RMK A01 T00851040  RH  041%=      5-min Rain = 0
KDC1 240631Z 17006KT 09/M04 A3007 RMK A01 T00871039  RH  041%=      5-min Rain = 0
KDC1 240632Z 17008KT 09/M03 A3008 RMK A01 T00861027  RH  045%=      5-min Rain = 0
KDC1 240633Z 16007KT 08/M02 A3008 RMK A01 T00841023  RH  047%=      5-min Rain = 0
KDC1 240634Z 18008KT 09/M02 A3008 RMK A01 T00851017  RH  049%=      5-min Rain = 0
KDC1 240635Z 27004KT 09/M02 A3008 RMK A01 T00861024  RH  046%=      5-min Rain = 0
KDC1 240636Z 25004KT 09/M03 A3007 RMK A01 T00921034  RH  041%=      5-min Rain = 0
KDC1 240637Z 23004KT 10/M04 A3007 RMK A01 T01011038  RH  037%=      5-min Rain = 0
KDC1 240638Z 19006KT 11/M04 A3008 RMK A01 T01051036  RH  037%=      5-min Rain = 0
KDC1 240639Z 19005KT 11/M03 A3008 RMK A01 T01051031  RH  038%=      5-min Rain = 0
KDC1 240640Z 20004KT 10/M03 A3008 RMK A01 T01041032  RH  038%=      5-min Rain = 0
KDC1 240641Z 20002KT 10/M03 A3008 RMK A01 T01041033  RH  038%=      5-min Rain = 0
KDC1 240642Z 19002KT 10/M03 A3007 RMK A01 T01031032  RH  039%=      5-min Rain = 0
KDC1 240643Z 20003KT 10/M03 A3007 RMK A01 T01021031  RH  039%=      5-min Rain = 0
KDC1 240644Z 22003KT 10/M03 A3007 RMK A01 T00991031  RH  040%=      5-min Rain = 0
KDC1 240645Z 21004KT 10/M04 A3007 RMK A01 T00991036  RH  039%=      5-min Rain = 0
KDC1 240646Z 21004KT 10/M04 A3007 RMK A01 T00991039  RH  037%=      5-min Rain = 0
KDC1 240647Z 21005KT 10/M04 A3007 RMK A01 T00991039  RH  038%=      5-min Rain = 0
KDC1 240648Z 20003KT 10/M04 A3007 RMK A01 T00991038  RH  038%=      5-min Rain = 0
KDC1 240649Z 20004KT 10/M04 A3007 RMK A01 T00981039  RH  038%=      5-min Rain = 0
KDC1 240650Z 20004KT 10/M04 A3007 RMK A01 T00981039  RH  038%=      5-min Rain = 0
KDC1 240651Z 20004KT 10/M04 A3007 RMK A01 T00961038  RH  039%=      5-min Rain = 0
KDC1 240652Z 20004KT 10/M04 A3008 RMK A01 T00951037  RH  039%=      5-min Rain = 0
KDC1 240653Z 20004KT 09/M04 A3008 RMK A01 T00941038  RH  039%=      5-min Rain = 0
KDC1 240654Z 21004KT 09/M04 A3008 RMK A01 T00941041  RH  038%=      5-min Rain = 0
KDC1 240655Z 20005KT 09/M04 A3008 RMK A01 T00931039  RH  039%=      5-min Rain = 0
KDC1 240656Z 19005KT 09/M04 A3008 RMK A01 T00931041  RH  039%=      5-min Rain = 0
KDC1 240657Z 20005KT 09/M04 A3008 RMK A01 T00931043  RH  038%=      5-min Rain = 0
KDC1 240658Z 19005KT 09/M04 A3007 RMK A01 T00941043  RH  038%=      5-min Rain = 0
KDC1 240659Z 20005KT 10/M04 A3007 RMK A01 T00951043  RH  038%=      5-min Rain = 0
KDC1 240700Z 20003KT 09/M04 A3007 RMK A01 T00941040  RH  038%=      5-min Rain = 0
KDC1 240701Z 19004KT 09/M04 A3008 RMK A01 T00941042  RH  038%=      5-min Rain = 0
KDC1 240702Z 19006KT 09/M04 A3008 RMK A01 T00931043  RH  038%=      5-min Rain = 0
KDC1 240703Z 19006KT 09/M05 A3008 RMK A01 T00931045  RH  038%=      5-min Rain = 0
KDC1 240704Z 19005KT 09/M05 A3008 RMK A01 T00941045  RH  037%=      5-min Rain = 0
KDC1 240705Z 19005KT 09/M05 A3008 RMK A01 T00941045  RH  037%=      5-min Rain = 0
KDC1 240706Z 19005KT 09/M05 A3008 RMK A01 T00931045  RH  037%=      5-min Rain = 0
KDC1 240707Z 20006KT 09/M05 A3008 RMK A01 T00941047  RH  037%=      5-min Rain = 0
KDC1 240708Z 20004KT 10/M05 A3008 RMK A01 T00951046  RH  037%=      5-min Rain = 0
KDC1 240709Z 20006KT 10/M05 A3008 RMK A01 T00951045  RH  037%=      5-min Rain = 0
KDC1 240710Z 19006KT 10/M05 A3008 RMK A01 T00951050  RH  036%=      5-min Rain = 0
KDC1 240711Z 20005KT 10/M05 A3008 RMK A01 T00971049  RH  035%=      5-min Rain = 0
KDC1 240712Z 19004KT 10/M05 A3008 RMK A01 T00971050  RH  035%=      5-min Rain = 0
KDC1 240713Z 19004KT 10/M05 A3008 RMK A01 T00971050  RH  035%=      5-min Rain = 0
KDC1 240714Z 19004KT 10/M05 A3008 RMK A01 T00981052  RH  034%=      5-min Rain = 0
KDC1 240715Z 19002KT 10/M05 A3008 RMK A01 T00991052  RH  034%=      5-min Rain = 0
KDC1 240716Z 23000KT 10/M05 A3008 RMK A01 T00981051  RH  035%=      5-min Rain = 0
KDC1 240717Z 05002KT 10/M04 A3008 RMK A01 T00951042  RH  038%=      5-min Rain = 0
KDC1 240718Z 08002KT 09/M04 A3008 RMK A01 T00881039  RH  040%=      5-min Rain = 0
KDC1 240719Z 14001KT 09/M04 A3008 RMK A01 T00851040  RH  041%=      5-min Rain = 0
KDC1 240720Z 15001KT 09/M05 A3008 RMK A01 T00851046  RH  039%=      5-min Rain = 0
KDC1 240721Z 32001KT 09/M04 A3008 RMK A01 T00871043  RH  040%=      5-min Rain = 0
KDC1 240722Z 36000KT 08/M04 A3008 RMK A01 T00831041  RH  041%=      5-min Rain = 0
KDC1 240723Z 14000KT 08/M04 A3008 RMK A01 T00811042  RH  042%=      5-min Rain = 0
KDC1 240724Z 17001KT 08/M04 A3008 RMK A01 T00801044  RH  041%=      5-min Rain = 0
KDC1 240725Z 20002KT 08/M04 A3008 RMK A01 T00801042  RH  042%=      5-min Rain = 0
KDC1 240726Z 20003KT 08/M05 A3008 RMK A01 T00801046  RH  041%=      5-min Rain = 0
KDC1 240727Z 19004KT 08/M05 A3008 RMK A01 T00811045  RH  040%=      5-min Rain = 0
KDC1 240728Z 18003KT 08/M05 A3008 RMK A01 T00821045  RH  040%=      5-min Rain = 0
KDC1 240729Z 20003KT 08/M05 A3008 RMK A01 T00831047  RH  039%=      5-min Rain = 0
KDC1 240730Z 24003KT 08/M05 A3008 RMK A01 T00841048  RH  039%=      5-min Rain = 0
KDC1 240731Z 24003KT 09/M05 A3008 RMK A01 T00851049  RH  039%=      5-min Rain = 0
KDC1 240732Z 19003KT 08/M05 A3008 RMK A01 T00841047  RH  039%=      5-min Rain = 0
KDC1 240733Z 20004KT 08/M05 A3008 RMK A01 T00841050  RH  038%=      5-min Rain = 0
KDC1 240734Z 23004KT 09/M05 A3008 RMK A01 T00851051  RH  037%=      5-min Rain = 0
KDC1 240735Z 24004KT 09/M05 A3008 RMK A01 T00861049  RH  038%=      5-min Rain = 0
KDC1 240736Z 24002KT 08/M05 A3008 RMK A01 T00841046  RH  040%=      5-min Rain = 0
KDC1 240737Z 25002KT 08/M04 A3008 RMK A01 T00781044  RH  042%=      5-min Rain = 0
KDC1 240738Z 26004KT 07/M04 A3008 RMK A01 T00731044  RH  043%=      5-min Rain = 0
KDC1 240739Z 24004KT 07/M04 A3008 RMK A01 T00721044  RH  043%=      5-min Rain = 0
KDC1 240740Z 25004KT 07/M04 A3008 RMK A01 T00721043  RH  044%=      5-min Rain = 0
KDC1 240741Z 24004KT 07/M04 A3008 RMK A01 T00711039  RH  045%=      5-min Rain = 0
KDC1 240742Z 24004KT 07/M04 A3008 RMK A01 T00711036  RH  046%=      5-min Rain = 0
KDC1 240743Z 24005KT 07/M03 A3008 RMK A01 T00711034  RH  047%=      5-min Rain = 0
KDC1 240744Z 23004KT 07/M04 A3008 RMK A01 T00731036  RH  046%=      5-min Rain = 0
KDC1 240745Z 24003KT 08/M04 A3008 RMK A01 T00751038  RH  045%=      5-min Rain = 0
KDC1 240746Z 24003KT 08/M04 A3008 RMK A01 T00761038  RH  044%=      5-min Rain = 0
KDC1 240747Z 24003KT 08/M04 A3008 RMK A01 T00761041  RH  043%=      5-min Rain = 0
KDC1 240748Z 23002KT 08/M04 A3008 RMK A01 T00771042  RH  043%=      5-min Rain = 0
KDC1 240749Z 23002KT 08/M04 A3008 RMK A01 T00781041  RH  043%=      5-min Rain = 0
KDC1 240750Z 24003KT 08/M04 A3008 RMK A01 T00771040  RH  043%=      5-min Rain = 0
KDC1 240751Z 25003KT 08/M04 A3008 RMK A01 T00781041  RH  043%=      5-min Rain = 0
KDC1 240752Z 25003KT 08/M04 A3008 RMK A01 T00781041  RH  043%=      5-min Rain = 0
KDC1 240753Z 25003KT 08/M04 A3008 RMK A01 T00771040  RH  043%=      5-min Rain = 0
KDC1 240754Z 25003KT 08/M04 A3008 RMK A01 T00771039  RH  044%=      5-min Rain = 0
KDC1 240755Z 25003KT 08/M04 A3008 RMK A01 T00761039  RH  044%=      5-min Rain = 0
KDC1 240756Z 24003KT 08/M04 A3008 RMK A01 T00751039  RH  044%=      5-min Rain = 0
KDC1 240757Z 25003KT 08/M04 A3008 RMK A01 T00751040  RH  044%=      5-min Rain = 0
KDC1 240758Z 24004KT 08/M04 A3008 RMK A01 T00751039  RH  044%=      5-min Rain = 0
KDC1 240759Z 23003KT 08/M04 A3008 RMK A01 T00751040  RH  044%=      5-min Rain = 0
KDC1 240800Z 22003KT 08/M04 A3008 RMK A01 T00751042  RH  043%=      5-min Rain = 0
KDC1 240801Z 23003KT 08/M04 A3008 RMK A01 T00761043  RH  043%=      5-min Rain = 0
KDC1 240802Z 25003KT 08/M05 A3008 RMK A01 T00761045  RH  042%=      5-min Rain = 0
KDC1 240803Z 25005KT 08/M04 A3008 RMK A01 T00771044  RH  042%=      5-min Rain = 0
KDC1 240804Z 25005KT 08/M04 A3008 RMK A01 T00771043  RH  042%=      5-min Rain = 0
KDC1 240805Z 26005KT 08/M04 A3008 RMK A01 T00761040  RH  044%=      5-min Rain = 0
KDC1 240806Z 26005KT 07/M04 A3008 RMK A01 T00741040  RH  044%=      5-min Rain = 0
KDC1 240807Z 26005KT 07/M04 A3008 RMK A01 T00721039  RH  045%=      5-min Rain = 0
KDC1 240808Z 27004KT 07/M04 A3008 RMK A01 T00701039  RH  046%=      5-min Rain = 0
KDC1 240809Z 27004KT 07/M04 A3008 RMK A01 T00681038  RH  047%=      5-min Rain = 0
KDC1 240810Z 29004KT 07/M04 A3008 RMK A01 T00661040  RH  047%=      5-min Rain = 0
KDC1 240811Z 30006KT 06/M04 A3008 RMK A01 T00631042  RH  047%=      5-min Rain = 0
KDC1 240812Z 31005KT 06/M04 A3008 RMK A01 T00601041  RH  048%=      5-min Rain = 0
KDC1 240813Z 29004KT 06/M04 A3008 RMK A01 T00611039  RH  049%=      5-min Rain = 0
KDC1 240814Z 26004KT 07/M04 A3008 RMK A01 T00651039  RH  047%=      5-min Rain = 0
KDC1 240815Z 26004KT 07/M04 A3008 RMK A01 T00671040  RH  047%=      5-min Rain = 0
KDC1 240816Z 27004KT 07/M04 A3008 RMK A01 T00681040  RH  046%=      5-min Rain = 0
KDC1 240817Z 29004KT 07/M04 A3008 RMK A01 T00681042  RH  045%=      5-min Rain = 0
KDC1 240818Z 30004KT 07/M04 A3008 RMK A01 T00691042  RH  045%=      5-min Rain = 0
KDC1 240819Z 30005KT 07/M04 A3008 RMK A01 T00681042  RH  045%=      5-min Rain = 0
KDC1 240820Z 28004KT 07/M04 A3008 RMK A01 T00681042  RH  045%=      5-min Rain = 0
KDC1 240821Z 30004KT 07/M04 A3008 RMK A01 T00661043  RH  046%=      5-min Rain = 0
KDC1 240822Z 31005KT 07/M04 A3008 RMK A01 T00651043  RH  046%=      5-min Rain = 0
KDC1 240823Z 29004KT 06/M04 A3008 RMK A01 T00641044  RH  046%=      5-min Rain = 0
KDC1 240824Z 27003KT 07/M04 A3008 RMK A01 T00651044  RH  045%=      5-min Rain = 0
KDC1 240825Z 29003KT 07/M04 A3008 RMK A01 T00671044  RH  045%=      5-min Rain = 0
KDC1 240826Z 31004KT 07/M04 A3008 RMK A01 T00671043  RH  045%=      5-min Rain = 0
KDC1 240827Z 29003KT 07/M04 A3009 RMK A01 T00651043  RH  046%=      5-min Rain = 0
KDC1 240828Z 30001KT 06/M04 A3009 RMK A01 T00641044  RH  046%=      5-min Rain = 0
KDC1 240829Z 07004KT 06/M04 A3009 RMK A01 T00641044  RH  046%=      5-min Rain = 0
KDC1 240830Z 07004KT 07/M04 A3009 RMK A01 T00651039  RH  047%=      5-min Rain = 0
KDC1 240831Z 08002KT 07/M03 A3009 RMK A01 T00651032  RH  050%=      5-min Rain = 0
KDC1 240832Z 07003KT 06/M03 A3009 RMK A01 T00641031  RH  051%=      5-min Rain = 0
KDC1 240833Z 05002KT 06/M03 A3009 RMK A01 T00631031  RH  051%=      5-min Rain = 0
KDC1 240834Z 06004KT 06/M03 A3009 RMK A01 T00621033  RH  051%=      5-min Rain = 0
KDC1 240835Z 07005KT 06/M03 A3009 RMK A01 T00611034  RH  050%=      5-min Rain = 0
KDC1 240836Z 07004KT 06/M04 A3009 RMK A01 T00591038  RH  050%=      5-min Rain = 0
KDC1 240837Z 06002KT 06/M04 A3009 RMK A01 T00591038  RH  050%=      5-min Rain = 0
KDC1 240838Z 09002KT 06/M04 A3009 RMK A01 T00591038  RH  050%=      5-min Rain = 0
KDC1 240839Z 10004KT 06/M04 A3009 RMK A01 T00591037  RH  050%=      5-min Rain = 0
KDC1 240840Z 09003KT 06/M03 A3009 RMK A01 T00591034  RH  051%=      5-min Rain = 0
KDC1 240841Z 10003KT 06/M03 A3009 RMK A01 T00591032  RH  052%=      5-min Rain = 0
KDC1 240842Z 10004KT 06/M03 A3009 RMK A01 T00581030  RH  053%=      5-min Rain = 0
KDC1 240843Z 10005KT 06/M03 A3009 RMK A01 T00551028  RH  055%=      5-min Rain = 0
KDC1 240844Z 10006KT 05/M03 A3009 RMK A01 T00521027  RH  057%=      5-min Rain = 0
KDC1 240845Z 10005KT 05/M03 A3009 RMK A01 T00501025  RH  058%=      5-min Rain = 0
KDC1 240846Z 10005KT 05/M03 A3009 RMK A01 T00491025  RH  059%=      5-min Rain = 0
KDC1 240847Z 10005KT 05/M02 A3009 RMK A01 T00481024  RH  059%=      5-min Rain = 0
KDC1 240848Z 10005KT 05/M02 A3009 RMK A01 T00471024  RH  060%=      5-min Rain = 0
KDC1 240849Z 09004KT 05/M02 A3009 RMK A01 T00471024  RH  060%=      5-min Rain = 0
KDC1 240850Z 09004KT 05/M02 A3009 RMK A01 T00471023  RH  060%=      5-min Rain = 0
KDC1 240851Z 09004KT 05/M02 A3008 RMK A01 T00471022  RH  061%=      5-min Rain = 0
KDC1 240852Z 09004KT 05/M02 A3008 RMK A01 T00481022  RH  061%=      5-min Rain = 0
KDC1 240853Z 10004KT 05/M02 A3008 RMK A01 T00481021  RH  061%=      5-min Rain = 0
KDC1 240854Z 10004KT 05/M02 A3008 RMK A01 T00481021  RH  061%=      5-min Rain = 0
KDC1 240855Z 10004KT 05/M02 A3009 RMK A01 T00491022  RH  060%=      5-min Rain = 0
KDC1 240856Z 09003KT 05/M02 A3009 RMK A01 T00491022  RH  060%=      5-min Rain = 0
KDC1 240857Z 09003KT 05/M02 A3009 RMK A01 T00501023  RH  059%=      5-min Rain = 0
KDC1 240858Z 09004KT 05/M02 A3009 RMK A01 T00511023  RH  059%=      5-min Rain = 0
KDC1 240859Z 09004KT 05/M02 A3009 RMK A01 T00521023  RH  059%=      5-min Rain = 0
KDC1 240900Z 09004KT 05/M02 A3009 RMK A01 T00531024  RH  058%=      5-min Rain = 0
KDC1 240901Z 10004KT 05/M03 A3008 RMK A01 T00541025  RH  057%=      5-min Rain = 0
KDC1 240902Z 10004KT 06/M03 A3008 RMK A01 T00551025  RH  056%=      5-min Rain = 0
KDC1 240903Z 10004KT 06/M03 A3008 RMK A01 T00551025  RH  056%=      5-min Rain = 0
KDC1 240904Z 10004KT 06/M03 A3008 RMK A01 T00561026  RH  056%=      5-min Rain = 0
KDC1 240905Z 09003KT 06/M03 A3008 RMK A01 T00571026  RH  055%=      5-min Rain = 0
KDC1 240906Z 09002KT 06/M03 A3008 RMK A01 T00571025  RH  056%=      5-min Rain = 0
KDC1 240907Z 09003KT 06/M03 A3008 RMK A01 T00571025  RH  055%=      5-min Rain = 0
KDC1 240908Z 09003KT 06/M03 A3008 RMK A01 T00571026  RH  055%=      5-min Rain = 0
KDC1 240909Z 08003KT 06/M03 A3008 RMK A01 T00561027  RH  055%=      5-min Rain = 0
KDC1 240910Z 07001KT 06/M03 A3009 RMK A01 T00561030  RH  054%=      5-min Rain = 0
KDC1 240911Z 09001KT 06/M03 A3009 RMK A01 T00551032  RH  054%=      5-min Rain = 0
KDC1 240912Z 10003KT 06/M03 A3009 RMK A01 T00551032  RH  054%=      5-min Rain = 0
KDC1 240913Z 10002KT 06/M03 A3009 RMK A01 T00551032  RH  054%=      5-min Rain = 0
KDC1 240914Z 09001KT 06/M03 A3009 RMK A01 T00551031  RH  054%=      5-min Rain = 0
KDC1 240915Z 08002KT 06/M03 A3008 RMK A01 T00551031  RH  054%=      5-min Rain = 0
KDC1 240916Z 07002KT 06/M03 A3008 RMK A01 T00551032  RH  054%=      5-min Rain = 0
KDC1 240917Z 07001KT 06/M03 A3008 RMK A01 T00561033  RH  053%=      5-min Rain = 0
KDC1 240918Z 07001KT 06/M03 A3009 RMK A01 T00551034  RH  053%=      5-min Rain = 0
KDC1 240919Z 07001KT 06/M04 A3008 RMK A01 T00551035  RH  052%=      5-min Rain = 0
KDC1 240920Z 05001KT 06/M04 A3008 RMK A01 T00551036  RH  052%=      5-min Rain = 0
KDC1 240921Z 00001KT 05/M04 A3008 RMK A01 T00521038  RH  052%=      5-min Rain = 0
KDC1 240922Z 35002KT 05/M04 A3009 RMK A01 T00481038  RH  054%=      5-min Rain = 0
KDC1 240923Z 03002KT 05/M03 A3009 RMK A01 T00451034  RH  056%=      5-min Rain = 0
KDC1 240924Z 07001KT 04/M03 A3009 RMK A01 T00431033  RH  057%=      5-min Rain = 0
KDC1 240925Z 06001KT 04/M03 A3009 RMK A01 T00421033  RH  058%=      5-min Rain = 0
KDC1 240926Z 08000KT 04/M03 A3009 RMK A01 T00421032  RH  059%=      5-min Rain = 0
KDC1 240927Z 00000KT 04/M03 A3009 RMK A01 T00411031  RH  059%=      5-min Rain = 0
KDC1 240928Z 07000KT 04/M03 A3009 RMK A01 T00421032  RH  059%=      5-min Rain = 0
KDC1 240929Z 09001KT 04/M03 A3009 RMK A01 T00421033  RH  058%=      5-min Rain = 0
KDC1 240930Z 00000KT 04/M03 A3009 RMK A01 T00431034  RH  057%=      5-min Rain = 0
KDC1 240931Z 00000KT 04/M04 A3009 RMK A01 T00431035  RH  057%=      5-min Rain = 0
KDC1 240932Z 11000KT 04/M04 A3009 RMK A01 T00421037  RH  056%=      5-min Rain = 0
KDC1 240933Z 11000KT 04/M04 A3009 RMK A01 T00431037  RH  056%=      5-min Rain = 0
KDC1 240934Z 30003KT 04/M04 A3009 RMK A01 T00411039  RH  056%=      5-min Rain = 0
KDC1 240935Z 01000KT 04/M04 A3009 RMK A01 T00391037  RH  058%=      5-min Rain = 0
KDC1 240936Z 11001KT 04/M04 A3009 RMK A01 T00371036  RH  059%=      5-min Rain = 0
KDC1 240937Z 32001KT 04/M04 A3009 RMK A01 T00361035  RH  059%=      5-min Rain = 0
KDC1 240938Z 33003KT 04/M04 A3009 RMK A01 T00361035  RH  060%=      5-min Rain = 0
KDC1 240939Z 33003KT 04/M04 A3009 RMK A01 T00351035  RH  060%=      5-min Rain = 0
KDC1 240940Z 32004KT 03/M03 A3009 RMK A01 T00341033  RH  061%=      5-min Rain = 0
KDC1 240941Z 33005KT 03/M03 A3009 RMK A01 T00331032  RH  062%=      5-min Rain = 0
KDC1 240942Z 34004KT 03/M03 A3009 RMK A01 T00331032  RH  063%=      5-min Rain = 0
KDC1 240943Z 33006KT 03/M03 A3009 RMK A01 T00321029  RH  064%=      5-min Rain = 0
KDC1 240944Z 33005KT 04/M03 A3009 RMK A01 T00351025  RH  065%=      5-min Rain = 0
KDC1 240945Z 34004KT 04/M03 A3009 RMK A01 T00371025  RH  064%=      5-min Rain = 0
KDC1 240946Z 33004KT 04/M03 A3009 RMK A01 T00381027  RH  062%=      5-min Rain = 0
KDC1 240947Z 32004KT 04/M03 A3009 RMK A01 T00381028  RH  062%=      5-min Rain = 0
KDC1 240948Z 32003KT 04/M03 A3009 RMK A01 T00381029  RH  061%=      5-min Rain = 0
KDC1 240949Z 33004KT 04/M03 A3009 RMK A01 T00371031  RH  061%=      5-min Rain = 0
KDC1 240950Z 33004KT 04/M03 A3009 RMK A01 T00371031  RH  061%=      5-min Rain = 0
KDC1 240951Z 32004KT 04/M03 A3009 RMK A01 T00371031  RH  061%=      5-min Rain = 0
KDC1 240952Z 32005KT 04/M03 A3009 RMK A01 T00361033  RH  061%=      5-min Rain = 0
KDC1 240953Z 34006KT 04/M03 A3009 RMK A01 T00361034  RH  060%=      5-min Rain = 0
KDC1 240954Z 33005KT 04/M03 A3009 RMK A01 T00361032  RH  061%=      5-min Rain = 0
KDC1 240955Z 32005KT 04/M03 A3009 RMK A01 T00361031  RH  062%=      5-min Rain = 0
KDC1 240956Z 33005KT 04/M03 A3009 RMK A01 T00361031  RH  062%=      5-min Rain = 0
KDC1 240957Z 33005KT 04/M03 A3009 RMK A01 T00351031  RH  062%=      5-min Rain = 0
KDC1 240958Z 33006KT 04/M03 A3009 RMK A01 T00351031  RH  062%=      5-min Rain = 0
KDC1 240959Z 33005KT 04/M03 A3009 RMK A01 T00351031  RH  062%=      5-min Rain = 0
KDC1 241000Z 35005KT 04/M03 A3009 RMK A01 T00351031  RH  062%=      5-min Rain = 0
KDC1 241001Z 35007KT 03/M03 A3009 RMK A01 T00341032  RH  062%=      5-min Rain = 0
KDC1 241002Z 34007KT 04/M04 A3009 RMK A01 T00351036  RH  060%=      5-min Rain = 0
KDC1 241003Z 34005KT 04/M04 A3009 RMK A01 T00371039  RH  058%=      5-min Rain = 0
KDC1 241004Z 34005KT 04/M04 A3009 RMK A01 T00371040  RH  057%=      5-min Rain = 0
KDC1 241005Z 33004KT 04/M04 A3009 RMK A01 T00381041  RH  057%=      5-min Rain = 0
KDC1 241006Z 33003KT 04/M04 A3009 RMK A01 T00381039  RH  057%=      5-min Rain = 0
KDC1 241007Z 33005KT 04/M04 A3009 RMK A01 T00371036  RH  059%=      5-min Rain = 0
KDC1 241008Z 34005KT 04/M04 A3009 RMK A01 T00361035  RH  059%=      5-min Rain = 0
KDC1 241009Z 34005KT 04/M04 A3009 RMK A01 T00361036  RH  059%=      5-min Rain = 0
KDC1 241010Z 35006KT 04/M04 A3009 RMK A01 T00351039  RH  058%=      5-min Rain = 0
KDC1 241011Z 35006KT 04/M04 A3009 RMK A01 T00351042  RH  057%=      5-min Rain = 0
KDC1 241012Z 35007KT 04/M04 A3009 RMK A01 T00361043  RH  056%=      5-min Rain = 0
KDC1 241013Z 35007KT 04/M04 A3009 RMK A01 T00361043  RH  056%=      5-min Rain = 0
KDC1 241014Z 35006KT 04/M04 A3009 RMK A01 T00371044  RH  056%=      5-min Rain = 0
KDC1 241015Z 35006KT 04/M04 A3009 RMK A01 T00381044  RH  055%=      5-min Rain = 0
KDC1 241016Z 34006KT 04/M04 A3009 RMK A01 T00391044  RH  054%=      5-min Rain = 0
KDC1 241017Z 34006KT 04/M05 A3009 RMK A01 T00401045  RH  054%=      5-min Rain = 0
KDC1 241018Z 34007KT 04/M05 A3009 RMK A01 T00421045  RH  053%=      5-min Rain = 0
KDC1 241019Z 33007KT 04/M05 A3009 RMK A01 T00421045  RH  053%=      5-min Rain = 0
KDC1 241020Z 33007KT 04/M05 A3009 RMK A01 T00421046  RH  053%=      5-min Rain = 0
KDC1 241021Z 33007KT 04/M05 A3009 RMK A01 T00421045  RH  053%=      5-min Rain = 0
KDC1 241022Z 33007KT 04/M04 A3009 RMK A01 T00421044  RH  053%=      5-min Rain = 0
KDC1 241023Z 33007KT 04/M04 A3009 RMK A01 T00421044  RH  054%=      5-min Rain = 0
KDC1 241024Z 33008KT 04/M04 A3009 RMK A01 T00421043  RH  054%=      5-min Rain = 0
KDC1 241025Z 33008KT 04/M05 A3009 RMK A01 T00431045  RH  053%=      5-min Rain = 0
KDC1 241026Z 33008KT 05/M05 A3009 RMK A01 T00451046  RH  052%=      5-min Rain = 0
KDC1 241027Z 33007KT 05/M04 A3009 RMK A01 T00451044  RH  052%=      5-min Rain = 0
KDC1 241028Z 32007KT 05/M04 A3009 RMK A01 T00461040  RH  054%=      5-min Rain = 0
KDC1 241029Z 33007KT 05/M04 A3009 RMK A01 T00451037  RH  055%=      5-min Rain = 0
KDC1 241030Z 34007KT 04/M04 A3009 RMK A01 T00441035  RH  056%=      5-min Rain = 0
KDC1 241031Z 34007KT 04/M03 A3009 RMK A01 T00441034  RH  057%=      5-min Rain = 0
KDC1 241032Z 33006KT 04/M03 A3009 RMK A01 T00441034  RH  057%=      5-min Rain = 0
KDC1 241033Z 34006KT 05/M04 A3009 RMK A01 T00451035  RH  056%=      5-min Rain = 0
KDC1 241034Z 34005KT 05/M03 A3009 RMK A01 T00461034  RH  056%=      5-min Rain = 0
KDC1 241035Z 33004KT 05/M03 A3009 RMK A01 T00471034  RH  056%=      5-min Rain = 0
KDC1 241036Z 32004KT 05/M03 A3009 RMK A01 T00471034  RH  055%=      5-min Rain = 0
KDC1 241037Z 32004KT 05/M03 A3009 RMK A01 T00481034  RH  056%=      5-min Rain = 0
KDC1 241038Z 32003KT 05/M03 A3009 RMK A01 T00481033  RH  056%=      5-min Rain = 0
KDC1 241039Z 31003KT 05/M03 A3009 RMK A01 T00481031  RH  057%=      5-min Rain = 0
KDC1 241040Z 32004KT 05/M03 A3009 RMK A01 T00481030  RH  057%=      5-min Rain = 0
KDC1 241041Z 33004KT 05/M03 A3009 RMK A01 T00481030  RH  057%=      5-min Rain = 0
KDC1 241042Z 33004KT 05/M03 A3009 RMK A01 T00481030  RH  057%=      5-min Rain = 0
KDC1 241043Z 33004KT 05/M03 A3009 RMK A01 T00471030  RH  057%=      5-min Rain = 0
KDC1 241044Z 33005KT 05/M03 A3009 RMK A01 T00471030  RH  057%=      5-min Rain = 0
KDC1 241045Z 34005KT 05/M03 A3009 RMK A01 T00471031  RH  057%=      5-min Rain = 0
KDC1 241046Z 34005KT 05/M03 A3009 RMK A01 T00481031  RH  057%=      5-min Rain = 0
KDC1 241047Z 34005KT 05/M03 A3009 RMK A01 T00481031  RH  057%=      5-min Rain = 0
KDC1 241048Z 33006KT 05/M03 A3009 RMK A01 T00481030  RH  057%=      5-min Rain = 0
KDC1 241049Z 33006KT 05/M03 A3009 RMK A01 T00491029  RH  057%=      5-min Rain = 0
KDC1 241050Z 33006KT 05/M03 A3009 RMK A01 T00491029  RH  057%=      5-min Rain = 0
KDC1 241051Z 33006KT 05/M03 A3009 RMK A01 T00501028  RH  057%=      5-min Rain = 0
KDC1 241052Z 33006KT 05/M03 A3009 RMK A01 T00501027  RH  057%=      5-min Rain = 0
KDC1 241053Z 33005KT 05/M03 A3009 RMK A01 T00491027  RH  058%=      5-min Rain = 0
KDC1 241054Z 33005KT 05/M03 A3009 RMK A01 T00491027  RH  058%=      5-min Rain = 0
KDC1 241055Z 33005KT 05/M03 A3009 RMK A01 T00501027  RH  057%=      5-min Rain = 0
KDC1 241056Z 33004KT 05/M03 A3009 RMK A01 T00501028  RH  057%=      5-min Rain = 0
KDC1 241057Z 33003KT 05/M03 A3009 RMK A01 T00501028  RH  057%=      5-min Rain = 0
KDC1 241058Z 34003KT 05/M03 A3009 RMK A01 T00501028  RH  057%=      5-min Rain = 0
KDC1 241059Z 01002KT 05/M03 A3009 RMK A01 T00501030  RH  056%=      5-min Rain = 0
KDC1 241100Z 02003KT 05/M03 A3009 RMK A01 T00511034  RH  054%=      5-min Rain = 0
KDC1 241101Z 01003KT 05/M04 A3009 RMK A01 T00521039  RH  052%=      5-min Rain = 0
KDC1 241102Z 01002KT 05/M04 A301 RMK A01 T00541042  RH  050%=      5-min Rain = 0
KDC1 241103Z 01003KT 06/M04 A301 RMK A01 T00551043  RH  049%=      5-min Rain = 0
KDC1 241104Z 00004KT 06/M04 A301 RMK A01 T00561043  RH  049%=      5-min Rain = 0
KDC1 241105Z 35004KT 06/M04 A301 RMK A01 T00571044  RH  048%=      5-min Rain = 0
KDC1 241106Z 35006KT 06/M05 A301 RMK A01 T00571046  RH  047%=      5-min Rain = 0
KDC1 241107Z 35007KT 06/M05 A3009 RMK A01 T00581046  RH  047%=      5-min Rain = 0
KDC1 241108Z 35007KT 06/M05 A3009 RMK A01 T00581046  RH  047%=      5-min Rain = 0
KDC1 241109Z 34007KT 06/M05 A3009 RMK A01 T00581045  RH  048%=      5-min Rain = 0
KDC1 241110Z 35008KT 06/M05 A3009 RMK A01 T00591046  RH  047%=      5-min Rain = 0
KDC1 241111Z 35008KT 06/M05 A3009 RMK A01 T00621046  RH  046%=      5-min Rain = 0
KDC1 241112Z 34007KT 06/M05 A3009 RMK A01 T00641048  RH  044%=      5-min Rain = 0
KDC1 241113Z 34007KT 07/M05 A3009 RMK A01 T00661045  RH  045%=      5-min Rain = 0
KDC1 241114Z 35008KT 06/M05 A3009 RMK A01 T00641046  RH  045%=      5-min Rain = 0
KDC1 241115Z 35007KT 06/M05 A3009 RMK A01 T00641047  RH  045%=      5-min Rain = 0
KDC1 241116Z 35007KT 06/M05 A3009 RMK A01 T00631048  RH  045%=      5-min Rain = 0
KDC1 241117Z 35006KT 07/M05 A3009 RMK A01 T00651049  RH  044%=      5-min Rain = 0
KDC1 241118Z 36004KT 07/M05 A3009 RMK A01 T00661048  RH  044%=      5-min Rain = 0
KDC1 241119Z 03002KT 07/M05 A3009 RMK A01 T00651047  RH  044%=      5-min Rain = 0
KDC1 241120Z 06002KT 07/M05 A301 RMK A01 T00651046  RH  045%=      5-min Rain = 0
KDC1 241121Z 02001KT 06/M05 A301 RMK A01 T00641046  RH  045%=      5-min Rain = 0
KDC1 241122Z 02001KT 06/M05 A301 RMK A01 T00641045  RH  046%=      5-min Rain = 0
KDC1 241123Z 06001KT 06/M05 A301 RMK A01 T00641046  RH  045%=      5-min Rain = 0
KDC1 241124Z 08002KT 06/M05 A301 RMK A01 T00641046  RH  045%=      5-min Rain = 0
KDC1 241125Z 07001KT 07/M04 A301 RMK A01 T00651042  RH  046%=      5-min Rain = 0
KDC1 241126Z 05001KT 06/M04 A301 RMK A01 T00641036  RH  049%=      5-min Rain = 0
KDC1 241127Z 04000KT 06/M04 A301 RMK A01 T00621035  RH  050%=      5-min Rain = 0
KDC1 241128Z 02002KT 06/M04 A301 RMK A01 T00611036  RH  050%=      5-min Rain = 0
KDC1 241129Z 00003KT 06/M04 A301 RMK A01 T00601037  RH  050%=      5-min Rain = 0
KDC1 241130Z 35005KT 06/M04 A301 RMK A01 T00611039  RH  049%=      5-min Rain = 0
KDC1 241131Z 34006KT 06/M04 A301 RMK A01 T00601039  RH  049%=      5-min Rain = 0
KDC1 241132Z 34006KT 06/M04 A301 RMK A01 T00601039  RH  049%=      5-min Rain = 0
KDC1 241133Z 35007KT 06/M04 A301 RMK A01 T00601038  RH  049%=      5-min Rain = 0
KDC1 241134Z 35007KT 06/M04 A301 RMK A01 T00611040  RH  048%=      5-min Rain = 0
KDC1 241135Z 34006KT 06/M04 A301 RMK A01 T00621041  RH  048%=      5-min Rain = 0
KDC1 241136Z 35007KT 06/M04 A301 RMK A01 T00631041  RH  047%=      5-min Rain = 0
KDC1 241137Z 34006KT 06/M04 A301 RMK A01 T00641041  RH  047%=      5-min Rain = 0
KDC1 241138Z 35006KT 06/M04 A301 RMK A01 T00641042  RH  047%=      5-min Rain = 0
KDC1 241139Z 35005KT 06/M04 A301 RMK A01 T00641041  RH  047%=      5-min Rain = 0
KDC1 241140Z 34004KT 06/M04 A301 RMK A01 T00631042  RH  047%=      5-min Rain = 0
KDC1 241141Z 36003KT 06/M04 A301 RMK A01 T00631042  RH  047%=      5-min Rain = 0
KDC1 241142Z 07002KT 06/M04 A301 RMK A01 T00621041  RH  047%=      5-min Rain = 0
KDC1 241143Z 08004KT 06/M04 A301 RMK A01 T00621038  RH  049%=      5-min Rain = 0
KDC1 241144Z 06004KT 06/M03 A301 RMK A01 T00621034  RH  050%=      5-min Rain = 0
KDC1 241145Z 04004KT 06/M03 A301 RMK A01 T00621033  RH  051%=      5-min Rain = 0
KDC1 241146Z 03004KT 06/M03 A301 RMK A01 T00621033  RH  051%=      5-min Rain = 0
KDC1 241147Z 02004KT 06/M03 A301 RMK A01 T00621032  RH  051%=      5-min Rain = 0
KDC1 241148Z 02004KT 06/M03 A301 RMK A01 T00621033  RH  051%=      5-min Rain = 0
KDC1 241149Z 02004KT 06/M03 A301 RMK A01 T00621033  RH  051%=      5-min Rain = 0
KDC1 241150Z 03003KT 06/M03 A301 RMK A01 T00621032  RH  051%=      5-min Rain = 0
KDC1 241151Z 03004KT 06/M03 A301 RMK A01 T00611032  RH  051%=      5-min Rain = 0
KDC1 241152Z 03004KT 06/M03 A301 RMK A01 T00611032  RH  051%=      5-min Rain = 0
KDC1 241153Z 04003KT 06/M03 A301 RMK A01 T00611032  RH  051%=      5-min Rain = 0
KDC1 241154Z 05003KT 06/M03 A3011 RMK A01 T00611033  RH  051%=      5-min Rain = 0
KDC1 241155Z 04002KT 06/M03 A3011 RMK A01 T00621033  RH  051%=      5-min Rain = 0
KDC1 241156Z 01002KT 06/M03 A3011 RMK A01 T00621033  RH  051%=      5-min Rain = 0
KDC1 241157Z 00003KT 06/M03 A3011 RMK A01 T00621033  RH  051%=      5-min Rain = 0
KDC1 241158Z 00004KT 06/M03 A3011 RMK A01 T00611033  RH  051%=      5-min Rain = 0
KDC1 241159Z 00004KT 06/M03 A301 RMK A01 T00601034  RH  051%=      5-min Rain = 0
KDC1 241200Z 36005KT 06/M03 A301 RMK A01 T00601034  RH  051%=      5-min Rain = 0
KDC1 241201Z 35004KT 06/M03 A301 RMK A01 T00601034  RH  051%=      5-min Rain = 0
KDC1 241202Z 00004KT 06/M03 A301 RMK A01 T00591034  RH  051%=      5-min Rain = 0
KDC1 241203Z 35004KT 06/M04 A301 RMK A01 T00581035  RH  051%=      5-min Rain = 0
KDC1 241204Z 35004KT 06/M03 A3011 RMK A01 T00571034  RH  052%=      5-min Rain = 0
KDC1 241205Z 00004KT 06/M03 A3011 RMK A01 T00561034  RH  052%=      5-min Rain = 0
KDC1 241206Z 01005KT 06/M04 A3011 RMK A01 T00561035  RH  052%=      5-min Rain = 0
KDC1 241207Z 35004KT 06/M04 A3011 RMK A01 T00551035  RH  052%=      5-min Rain = 0
KDC1 241208Z 36002KT 06/M04 A3011 RMK A01 T00551035  RH  052%=      5-min Rain = 0
KDC1 241209Z 01003KT 05/M04 A3011 RMK A01 T00541035  RH  053%=      5-min Rain = 0
KDC1 241210Z 01003KT 05/M04 A3011 RMK A01 T00541035  RH  053%=      5-min Rain = 0
KDC1 241211Z 00004KT 05/M03 A3011 RMK A01 T00541034  RH  053%=      5-min Rain = 0
KDC1 241212Z 01004KT 05/M03 A3011 RMK A01 T00531034  RH  053%=      5-min Rain = 0
KDC1 241213Z 01004KT 05/M03 A3011 RMK A01 T00541033  RH  054%=      5-min Rain = 0
KDC1 241214Z 01004KT 05/M03 A3011 RMK A01 T00541032  RH  054%=      5-min Rain = 0
KDC1 241215Z 00004KT 05/M03 A3011 RMK A01 T00531032  RH  054%=      5-min Rain = 0
KDC1 241216Z 00004KT 05/M03 A3011 RMK A01 T00521032  RH  054%=      5-min Rain = 0
KDC1 241217Z 00005KT 05/M03 A3011 RMK A01 T00511032  RH  055%=      5-min Rain = 0
KDC1 241218Z 36004KT 05/M03 A3011 RMK A01 T00501032  RH  056%=      5-min Rain = 0
KDC1 241219Z 34004KT 05/M03 A3011 RMK A01 T00491033  RH  055%=      5-min Rain = 0
KDC1 241220Z 34005KT 05/M03 A3011 RMK A01 T00491033  RH  055%=      5-min Rain = 0
KDC1 241221Z 35006KT 05/M04 A3011 RMK A01 T00491036  RH  054%=      5-min Rain = 0
KDC1 241222Z 36007KT 05/M04 A3011 RMK A01 T00501038  RH  053%=      5-min Rain = 0
KDC1 241223Z 00006KT 05/M04 A3011 RMK A01 T00521039  RH  052%=      5-min Rain = 0
KDC1 241224Z 35006KT 05/M04 A3011 RMK A01 T00531039  RH  051%=      5-min Rain = 0
KDC1 241225Z 34005KT 05/M04 A3011 RMK A01 T00531040  RH  051%=      5-min Rain = 0
KDC1 241226Z 34006KT 05/M04 A3011 RMK A01 T00541038  RH  052%=      5-min Rain = 0
KDC1 241227Z 35006KT 05/M04 A3011 RMK A01 T00541036  RH  052%=      5-min Rain = 0
KDC1 241228Z 35006KT 05/M04 A3011 RMK A01 T00541036  RH  052%=      5-min Rain = 0
KDC1 241229Z 35006KT 05/M04 A3011 RMK A01 T00541036  RH  052%=      5-min Rain = 0
KDC1 241230Z 35005KT 05/M04 A3011 RMK A01 T00541037  RH  052%=      5-min Rain = 0
KDC1 241231Z 35004KT 05/M04 A3011 RMK A01 T00541037  RH  052%=      5-min Rain = 0
KDC1 241232Z 35004KT 05/M04 A3011 RMK A01 T00521037  RH  052%=      5-min Rain = 0
KDC1 241233Z 36003KT 05/M04 A3011 RMK A01 T00511039  RH  052%=      5-min Rain = 0
KDC1 241234Z 35003KT 05/M04 A3011 RMK A01 T00511039  RH  052%=      5-min Rain = 0
KDC1 241235Z 34003KT 05/M04 A3011 RMK A01 T00511040  RH  052%=      5-min Rain = 0
KDC1 241236Z 35003KT 05/M04 A3011 RMK A01 T00511040  RH  052%=      5-min Rain = 0
KDC1 241237Z 35004KT 05/M04 A3011 RMK A01 T00501040  RH  052%=      5-min Rain = 0
KDC1 241238Z 36003KT 05/M04 A3011 RMK A01 T00501039  RH  052%=      5-min Rain = 0
KDC1 241239Z 35003KT 05/M04 A3011 RMK A01 T00501039  RH  052%=      5-min Rain = 0
KDC1 241240Z 35003KT 05/M04 A3011 RMK A01 T00501038  RH  053%=      5-min Rain = 0
KDC1 241241Z 36004KT 05/M04 A3011 RMK A01 T00511038  RH  053%=      5-min Rain = 0
KDC1 241242Z 36005KT 05/M04 A3011 RMK A01 T00501039  RH  052%=      5-min Rain = 0
KDC1 241243Z 35005KT 05/M04 A3011 RMK A01 T00501040  RH  052%=      5-min Rain = 0
KDC1 241244Z 35005KT 05/M04 A3011 RMK A01 T00511040  RH  052%=      5-min Rain = 0
KDC1 241245Z 34005KT 05/M04 A3011 RMK A01 T00511040  RH  052%=      5-min Rain = 0
KDC1 241246Z 35005KT 05/M04 A3011 RMK A01 T00511040  RH  052%=      5-min Rain = 0
KDC1 241247Z 35005KT 05/M04 A3011 RMK A01 T00511040  RH  052%=      5-min Rain = 0
KDC1 241248Z 34005KT 05/M04 A3011 RMK A01 T00511040  RH  052%=      5-min Rain = 0
KDC1 241249Z 35005KT 05/M04 A3011 RMK A01 T00511041  RH  052%=      5-min Rain = 0
KDC1 241250Z 35005KT 05/M04 A3012 RMK A01 T00511041  RH  052%=      5-min Rain = 0
KDC1 241251Z 34005KT 05/M04 A3012 RMK A01 T00501042  RH  051%=      5-min Rain = 0
KDC1 241252Z 34005KT 05/M04 A3012 RMK A01 T00501042  RH  051%=      5-min Rain = 0
KDC1 241253Z 33004KT 05/M04 A3012 RMK A01 T00501042  RH  052%=      5-min Rain = 0
KDC1 241254Z 35004KT 05/M04 A3012 RMK A01 T00501042  RH  052%=      5-min Rain = 0
KDC1 241255Z 35005KT 05/M04 A3012 RMK A01 T00501042  RH  052%=      5-min Rain = 0
KDC1 241256Z 35004KT 05/M04 A3012 RMK A01 T00501042  RH  051%=      5-min Rain = 0
KDC1 241257Z 35002KT 05/M04 A3012 RMK A01 T00491042  RH  051%=      5-min Rain = 0
KDC1 241258Z 00002KT 05/M04 A3012 RMK A01 T00481042  RH  052%=      5-min Rain = 0
KDC1 241259Z 03002KT 05/M04 A3012 RMK A01 T00471042  RH  052%=      5-min Rain = 0
KDC1 241300Z 02003KT 05/M04 A3012 RMK A01 T00471043  RH  052%=      5-min Rain = 0
KDC1 241301Z 35003KT 05/M04 A3012 RMK A01 T00471042  RH  052%=      5-min Rain = 0
KDC1 241302Z 34003KT 05/M04 A3012 RMK A01 T00461043  RH  052%=      5-min Rain = 0
KDC1 241303Z 34003KT 05/M04 A3012 RMK A01 T00461043  RH  052%=      5-min Rain = 0
KDC1 241304Z 36003KT 05/M04 A3012 RMK A01 T00461043  RH  052%=      5-min Rain = 0
KDC1 241305Z 36004KT 05/M04 A3012 RMK A01 T00461043  RH  052%=      5-min Rain = 0
KDC1 241306Z 34003KT 05/M04 A3012 RMK A01 T00461044  RH  052%=      5-min Rain = 0
KDC1 241307Z 35002KT 05/M04 A3012 RMK A01 T00451044  RH  052%=      5-min Rain = 0
KDC1 241308Z 35002KT 05/M04 A3012 RMK A01 T00451042  RH  053%=      5-min Rain = 0
KDC1 241309Z 34002KT 04/M04 A3012 RMK A01 T00431042  RH  054%=      5-min Rain = 0
KDC1 241310Z 02001KT 04/M04 A3012 RMK A01 T00421042  RH  054%=      5-min Rain = 0
KDC1 241311Z 03001KT 04/M04 A3013 RMK A01 T00411042  RH  055%=      5-min Rain = 0
KDC1 241312Z 01001KT 04/M04 A3013 RMK A01 T00411041  RH  055%=      5-min Rain = 0
KDC1 241313Z 01001KT 04/M04 A3013 RMK A01 T00401038  RH  057%=      5-min Rain = 0
KDC1 241314Z 00001KT 04/M04 A3013 RMK A01 T00401037  RH  057%=      5-min Rain = 0
KDC1 241315Z 36001KT 04/M04 A3013 RMK A01 T00401036  RH  058%=      5-min Rain = 0
KDC1 241316Z 35002KT 04/M04 A3013 RMK A01 T00401035  RH  058%=      5-min Rain = 0
KDC1 241317Z 34001KT 04/M04 A3013 RMK A01 T00401035  RH  058%=      5-min Rain = 0
KDC1 241318Z 00001KT 04/M04 A3013 RMK A01 T00401035  RH  058%=      5-min Rain = 0
KDC1 241319Z 36001KT 04/M03 A3013 RMK A01 T00401033  RH  059%=      5-min Rain = 0
KDC1 241320Z 35001KT 04/M03 A3013 RMK A01 T00401033  RH  059%=      5-min Rain = 0
KDC1 241321Z 00002KT 04/M03 A3013 RMK A01 T00411030  RH  060%=      5-min Rain = 0
KDC1 241322Z 34001KT 04/M03 A3013 RMK A01 T00421029  RH  060%=      5-min Rain = 0
KDC1 241323Z 32002KT 04/M03 A3013 RMK A01 T00431031  RH  059%=      5-min Rain = 0
KDC1 241324Z 32002KT 04/M04 A3013 RMK A01 T00431036  RH  056%=      5-min Rain = 0
KDC1 241325Z 34002KT 04/M04 A3013 RMK A01 T00431040  RH  055%=      5-min Rain = 0
KDC1 241326Z 33002KT 04/M04 A3013 RMK A01 T00441042  RH  054%=      5-min Rain = 0
KDC1 241327Z 33002KT 04/M04 A3013 RMK A01 T00441042  RH  054%=      5-min Rain = 0
KDC1 241328Z 34002KT 04/M04 A3013 RMK A01 T00441042  RH  053%=      5-min Rain = 0
KDC1 241329Z 32003KT 05/M04 A3013 RMK A01 T00451043  RH  053%=      5-min Rain = 0
KDC1 241330Z 32004KT 05/M04 A3013 RMK A01 T00451042  RH  053%=      5-min Rain = 0
KDC1 241331Z 32003KT 05/M04 A3013 RMK A01 T00461042  RH  053%=      5-min Rain = 0
KDC1 241332Z 31004KT 05/M04 A3013 RMK A01 T00451042  RH  053%=      5-min Rain = 0
KDC1 241333Z 33003KT 04/M04 A3013 RMK A01 T00441041  RH  054%=      5-min Rain = 0
KDC1 241334Z 32004KT 04/M04 A3013 RMK A01 T00431042  RH  054%=      5-min Rain = 0
KDC1 241335Z 31004KT 04/M04 A3013 RMK A01 T00431042  RH  054%=      5-min Rain = 0
KDC1 241336Z 32003KT 04/M04 A3013 RMK A01 T00431040  RH  055%=      5-min Rain = 0
KDC1 241337Z 32004KT 04/M04 A3013 RMK A01 T00431041  RH  054%=      5-min Rain = 0
KDC1 241338Z 31005KT 04/M04 A3013 RMK A01 T00431039  RH  055%=      5-min Rain = 0
KDC1 241339Z 31005KT 04/M04 A3013 RMK A01 T00441039  RH  055%=      5-min Rain = 0
KDC1 241340Z 32003KT 05/M04 A3013 RMK A01 T00461041  RH  054%=      5-min Rain = 0
KDC1 241341Z 31004KT 05/M04 A3013 RMK A01 T00471040  RH  053%=      5-min Rain = 0
KDC1 241342Z 31005KT 05/M04 A3013 RMK A01 T00491038  RH  053%=      5-min Rain = 0
KDC1 241343Z 31004KT 05/M04 A3014 RMK A01 T00501037  RH  053%=      5-min Rain = 0
KDC1 241344Z 31003KT 05/M04 A3014 RMK A01 T00511036  RH  053%=      5-min Rain = 0
KDC1 241345Z 30004KT 05/M04 A3014 RMK A01 T00521036  RH  053%=      5-min Rain = 0
KDC1 241346Z 29005KT 05/M04 A3014 RMK A01 T00531035  RH  053%=      5-min Rain = 0
KDC1 241347Z 29005KT 05/M03 A3014 RMK A01 T00531033  RH  054%=      5-min Rain = 0
KDC1 241348Z 29006KT 05/M03 A3014 RMK A01 T00531031  RH  055%=      5-min Rain = 0
KDC1 241349Z 29006KT 05/M03 A3014 RMK A01 T00531027  RH  056%=      5-min Rain = 0
KDC1 241350Z 29005KT 05/M02 A3014 RMK A01 T00541021  RH  059%=      5-min Rain = 0
KDC1 241351Z 29005KT 05/M01 A3014 RMK A01 T00541014  RH  061%=      5-min Rain = 0
KDC1 241352Z 29007KT 05/M01 A3014 RMK A01 T00541014  RH  062%=      5-min Rain = 0
KDC1 241353Z 31004KT 05/M02 A3014 RMK A01 T00541017  RH  060%=      5-min Rain = 0
KDC1 241354Z 32002KT 06/M02 A3013 RMK A01 T00551021  RH  058%=      5-min Rain = 0
KDC1 241355Z 29006KT 06/M02 A3014 RMK A01 T00561022  RH  057%=      5-min Rain = 0
KDC1 241356Z 29006KT 06/M02 A3014 RMK A01 T00571021  RH  057%=      5-min Rain = 0
KDC1 241357Z 31003KT 06/M02 A3014 RMK A01 T00571020  RH  058%=      5-min Rain = 0
KDC1 241358Z 30004KT 06/M02 A3014 RMK A01 T00581021  RH  057%=      5-min Rain = 0
KDC1 241359Z 28005KT 06/M02 A3014 RMK A01 T00591020  RH  057%=      5-min Rain = 0
KDC1 241400Z 29004KT 06/M02 A3014 RMK A01 T00601020  RH  056%=      5-min Rain = 0
KDC1 241401Z 28003KT 06/M02 A3014 RMK A01 T00611020  RH  056%=      5-min Rain = 0
KDC1 241402Z 26004KT 06/M02 A3014 RMK A01 T00631020  RH  055%=      5-min Rain = 0
KDC1 241403Z 27004KT 06/M02 A3014 RMK A01 T00641019  RH  055%=      5-min Rain = 0
KDC1 241404Z 28004KT 07/M02 A3014 RMK A01 T00661018  RH  055%=      5-min Rain = 0
KDC1 241405Z 28004KT 07/M02 A3014 RMK A01 T00661019  RH  055%=      5-min Rain = 0
KDC1 241406Z 27004KT 07/M02 A3014 RMK A01 T00671019  RH  054%=      5-min Rain = 0
KDC1 241407Z 28004KT 07/M02 A3014 RMK A01 T00681019  RH  054%=      5-min Rain = 0
KDC1 241408Z 28004KT 07/M02 A3014 RMK A01 T00691017  RH  054%=      5-min Rain = 0
KDC1 241409Z 27004KT 07/M02 A3014 RMK A01 T00701016  RH  054%=      5-min Rain = 0
KDC1 241410Z 28004KT 07/M02 A3014 RMK A01 T00721016  RH  054%=      5-min Rain = 0
KDC1 241411Z 28005KT 07/M02 A3015 RMK A01 T00731016  RH  053%=      5-min Rain = 0
KDC1 241412Z 29005KT 08/M02 A3015 RMK A01 T00751017  RH  052%=      5-min Rain = 0
KDC1 241413Z 30005KT 08/M02 A3014 RMK A01 T00771018  RH  051%=      5-min Rain = 0
KDC1 241414Z 29004KT 08/M02 A3015 RMK A01 T00781020  RH  050%=      5-min Rain = 0
KDC1 241415Z 29004KT 08/M02 A3015 RMK A01 T00801020  RH  049%=      5-min Rain = 0
KDC1 241416Z 30004KT 08/M02 A3015 RMK A01 T00821018  RH  049%=      5-min Rain = 0
KDC1 241417Z 30003KT 08/M02 A3015 RMK A01 T00831016  RH  050%=      5-min Rain = 0
KDC1 241418Z 30004KT 09/M02 A3015 RMK A01 T00851021  RH  047%=      5-min Rain = 0
KDC1 241419Z 30003KT 09/M02 A3015 RMK A01 T00861022  RH  047%=      5-min Rain = 0
KDC1 241420Z 30003KT 09/M02 A3015 RMK A01 T00871024  RH  046%=      5-min Rain = 0
KDC1 241421Z 31003KT 09/M02 A3015 RMK A01 T00881022  RH  046%=      5-min Rain = 0
KDC1 241422Z 31003KT 09/M02 A3015 RMK A01 T00901023  RH  045%=      5-min Rain = 0
KDC1 241423Z 32003KT 09/M02 A3015 RMK A01 T00901024  RH  045%=      5-min Rain = 0
KDC1 241424Z 31003KT 09/M02 A3015 RMK A01 T00911022  RH  045%=      5-min Rain = 0
KDC1 241425Z 31003KT 09/M02 A3015 RMK A01 T00921021  RH  045%=      5-min Rain = 0
KDC1 241426Z 31003KT 09/M02 A3015 RMK A01 T00931023  RH  044%=      5-min Rain = 0
KDC1 241427Z 31002KT 09/M02 A3015 RMK A01 T00941021  RH  044%=      5-min Rain = 0
KDC1 241428Z 31002KT 09/M02 A3015 RMK A01 T00941021  RH  044%=      5-min Rain = 0
KDC1 241429Z 30002KT 10/M02 A3015 RMK A01 T00951022  RH  044%=      5-min Rain = 0
KDC1 241430Z 31002KT 10/M02 A3015 RMK A01 T00961024  RH  043%=      5-min Rain = 0
KDC1 241431Z 31002KT 10/M03 A3015 RMK A01 T00971027  RH  042%=      5-min Rain = 0
KDC1 241432Z 32001KT 10/M03 A3015 RMK A01 T00981031  RH  040%=      5-min Rain = 0
KDC1 241433Z 33001KT 10/M03 A3015 RMK A01 T00991031  RH  040%=      5-min Rain = 0
KDC1 241434Z 33001KT 10/M03 A3015 RMK A01 T01001032  RH  039%=      5-min Rain = 0
KDC1 241435Z 33001KT 10/M03 A3015 RMK A01 T01011029  RH  040%=      5-min Rain = 0
KDC1 241436Z 33001KT 10/M03 A3015 RMK A01 T01021032  RH  039%=      5-min Rain = 0
KDC1 241437Z 34002KT 10/M03 A3015 RMK A01 T01031031  RH  039%=      5-min Rain = 0
KDC1 241438Z 34003KT 10/M03 A3015 RMK A01 T01031029  RH  039%=      5-min Rain = 0
KDC1 241439Z 34003KT 10/M03 A3015 RMK A01 T01031030  RH  039%=      5-min Rain = 0
KDC1 241440Z 36002KT 10/M03 A3015 RMK A01 T01031025  RH  041%=      5-min Rain = 0
KDC1 241441Z 35002KT 10/M02 A3015 RMK A01 T01031019  RH  042%=      5-min Rain = 0
KDC1 241442Z 35003KT 10/M02 A3015 RMK A01 T01041020  RH  042%=      5-min Rain = 0
KDC1 241443Z 34003KT 10/M03 A3015 RMK A01 T01041028  RH  040%=      5-min Rain = 0
KDC1 241444Z 34002KT 10/M03 A3015 RMK A01 T01041026  RH  040%=      5-min Rain = 0
KDC1 241445Z 35002KT 10/M02 A3015 RMK A01 T01041020  RH  042%=      5-min Rain = 0
KDC1 241446Z 33002KT 11/M02 A3015 RMK A01 T01051021  RH  041%=      5-min Rain = 0
KDC1 241447Z 34002KT 11/M02 A3015 RMK A01 T01051022  RH  041%=      5-min Rain = 0
KDC1 241448Z 35002KT 11/M02 A3016 RMK A01 T01051021  RH  041%=      5-min Rain = 0
KDC1 241449Z 35002KT 11/M02 A3016 RMK A01 T01061021  RH  041%=      5-min Rain = 0
KDC1 241450Z 35002KT 11/M03 A3016 RMK A01 T01061026  RH  039%=      5-min Rain = 0
KDC1 241451Z 34002KT 11/M03 A3016 RMK A01 T01081032  RH  037%=      5-min Rain = 0
KDC1 241452Z 02001KT 11/M04 A3016 RMK A01 T01091036  RH  036%=      5-min Rain = 0
KDC1 241453Z 00001KT 11/M04 A3016 RMK A01 T01101037  RH  036%=      5-min Rain = 0
KDC1 241454Z 35001KT 11/M04 A3016 RMK A01 T01121041  RH  034%=      5-min Rain = 0
KDC1 241455Z 02002KT 11/M04 A3016 RMK A01 T01121040  RH  034%=      5-min Rain = 0
KDC1 241456Z 02002KT 11/M04 A3016 RMK A01 T01131039  RH  034%=      5-min Rain = 0
KDC1 241457Z 02002KT 11/M04 A3016 RMK A01 T01141039  RH  034%=      5-min Rain = 0
KDC1 241458Z 36002KT 12/M04 A3016 RMK A01 T01151039  RH  034%=      5-min Rain = 0
KDC1 241459Z 03002KT 12/M04 A3016 RMK A01 T01151039  RH  034%=      5-min Rain = 0
KDC1 241500Z 02003KT 12/M03 A3016 RMK A01 T01161034  RH  035%=      5-min Rain = 0
KDC1 241501Z 02003KT 12/M04 A3016 RMK A01 T01151036  RH  034%=      5-min Rain = 0
KDC1 241502Z 02002KT 12/M03 A3016 RMK A01 T01151033  RH  035%=      5-min Rain = 0
KDC1 241503Z 03002KT 12/M03 A3016 RMK A01 T01151031  RH  036%=      5-min Rain = 0
KDC1 241504Z 03002KT 12/M03 A3016 RMK A01 T01151028  RH  037%=      5-min Rain = 0
KDC1 241505Z 04002KT 12/M03 A3016 RMK A01 T01151028  RH  037%=      5-min Rain = 0
KDC1 241506Z 05003KT 12/M02 A3016 RMK A01 T01171023  RH  037%=      5-min Rain = 0
KDC1 241507Z 06002KT 12/M03 A3016 RMK A01 T01191028  RH  036%=      5-min Rain = 0
KDC1 241508Z 05003KT 12/M03 A3016 RMK A01 T01201025  RH  036%=      5-min Rain = 0
KDC1 241509Z 03002KT 12/M03 A3016 RMK A01 T01211025  RH  036%=      5-min Rain = 0
KDC1 241510Z 04002KT 12/M03 A3016 RMK A01 T01211026  RH  036%=      5-min Rain = 0
KDC1 241511Z 05002KT 12/M03 A3016 RMK A01 T01221028  RH  035%=      5-min Rain = 0
KDC1 241512Z 02002KT 12/M03 A3016 RMK A01 T01231030  RH  034%=      5-min Rain = 0
KDC1 241513Z 03002KT 12/M04 A3016 RMK A01 T01241038  RH  032%=      5-min Rain = 0
KDC1 241514Z 04004KT 12/M04 A3016 RMK A01 T01241036  RH  033%=      5-min Rain = 0
KDC1 241515Z 04004KT 12/M04 A3016 RMK A01 T01231037  RH  033%=      5-min Rain = 0
KDC1 241516Z 02003KT 12/M04 A3016 RMK A01 T01231038  RH  032%=      5-min Rain = 0
KDC1 241517Z 01003KT 12/M04 A3016 RMK A01 T01231039  RH  032%=      5-min Rain = 0
KDC1 241518Z 03003KT 12/M04 A3016 RMK A01 T01231043  RH  031%=      5-min Rain = 0
KDC1 241519Z 04003KT 12/M04 A3016 RMK A01 T01231041  RH  031%=      5-min Rain = 0
KDC1 241520Z 03004KT 13/M04 A3016 RMK A01 T01251039  RH  032%=      5-min Rain = 0
KDC1 241521Z 03004KT 13/M04 A3016 RMK A01 T01251039  RH  032%=      5-min Rain = 0
KDC1 241522Z 02004KT 13/M04 A3016 RMK A01 T01251036  RH  032%=      5-min Rain = 0
KDC1 241523Z 02003KT 13/M03 A3016 RMK A01 T01251033  RH  033%=      5-min Rain = 0
KDC1 241524Z 03003KT 13/M04 A3016 RMK A01 T01261035  RH  032%=      5-min Rain = 0
KDC1 241525Z 04004KT 13/M03 A3016 RMK A01 T01261034  RH  033%=      5-min Rain = 0
KDC1 241526Z 05003KT 13/M03 A3016 RMK A01 T01271031  RH  033%=      5-min Rain = 0
KDC1 241527Z 04003KT 13/M03 A3016 RMK A01 T01271034  RH  032%=      5-min Rain = 0
KDC1 241528Z 04004KT 13/M03 A3016 RMK A01 T01281031  RH  033%=      5-min Rain = 0
KDC1 241529Z 05004KT 13/M04 A3016 RMK A01 T01291036  RH  032%=      5-min Rain = 0
KDC1 241530Z 05004KT 13/M04 A3016 RMK A01 T01301040  RH  030%=      5-min Rain = 0
KDC1 241531Z 04003KT 13/M04 A3016 RMK A01 T01311040  RH  030%=      5-min Rain = 0
KDC1 241532Z 05003KT 13/M04 A3016 RMK A01 T01331040  RH  030%=      5-min Rain = 0
KDC1 241533Z 07003KT 13/M04 A3016 RMK A01 T01331043  RH  029%=      5-min Rain = 0
KDC1 241534Z 06003KT 13/M04 A3016 RMK A01 T01331042  RH  029%=      5-min Rain = 0
KDC1 241535Z 04003KT 13/M04 A3016 RMK A01 T01341041  RH  030%=      5-min Rain = 0
KDC1 241536Z 03004KT 13/M04 A3016 RMK A01 T01341041  RH  029%=      5-min Rain = 0
KDC1 241537Z 04005KT 13/M04 A3016 RMK A01 T01341039  RH  030%=      5-min Rain = 0
KDC1 241538Z 05005KT 14/M04 A3016 RMK A01 T01351040  RH  029%=      5-min Rain = 0
KDC1 241539Z 06003KT 14/M04 A3016 RMK A01 T01361040  RH  029%=      5-min Rain = 0
KDC1 241540Z 07003KT 14/M04 A3016 RMK A01 T01361040  RH  029%=      5-min Rain = 0
KDC1 241541Z 06002KT 14/M04 A3016 RMK A01 T01371037  RH  030%=      5-min Rain = 0
KDC1 241542Z 07004KT 14/M04 A3016 RMK A01 T01391039  RH  029%=      5-min Rain = 0
KDC1 241543Z 07004KT 14/M04 A3016 RMK A01 T01391042  RH  028%=      5-min Rain = 0
KDC1 241544Z 07003KT 14/M04 A3016 RMK A01 T01401044  RH  028%=      5-min Rain = 0
KDC1 241545Z 08003KT 14/M05 A3016 RMK A01 T01411045  RH  027%=      5-min Rain = 0
KDC1 241546Z 09003KT 14/M04 A3016 RMK A01 T01411043  RH  028%=      5-min Rain = 0
KDC1 241547Z 10004KT 14/M04 A3016 RMK A01 T01431041  RH  028%=      5-min Rain = 0
KDC1 241548Z 10005KT 14/M04 A3016 RMK A01 T01431042  RH  028%=      5-min Rain = 0
KDC1 241549Z 09005KT 14/M04 A3016 RMK A01 T01421043  RH  027%=      5-min Rain = 0
KDC1 241550Z 10004KT 14/M04 A3016 RMK A01 T01421037  RH  029%=      5-min Rain = 0
KDC1 241551Z 11004KT 14/M04 A3016 RMK A01 T01441037  RH  028%=      5-min Rain = 0
KDC1 241552Z 09005KT 14/M04 A3016 RMK A01 T01441038  RH  028%=      5-min Rain = 0
KDC1 241553Z 10005KT 14/M04 A3016 RMK A01 T01431037  RH  029%=      5-min Rain = 0
KDC1 241554Z 10005KT 14/M03 A3016 RMK A01 T01421031  RH  030%=      5-min Rain = 0
KDC1 241555Z 10005KT 14/M03 A3016 RMK A01 T01411030  RH  031%=      5-min Rain = 0
KDC1 241556Z 11004KT 14/M03 A3016 RMK A01 T01401028  RH  031%=      5-min Rain = 0
KDC1 241557Z 10004KT 14/M03 A3016 RMK A01 T01411030  RH  030%=      5-min Rain = 0
KDC1 241558Z 09004KT 14/M03 A3016 RMK A01 T01411032  RH  030%=      5-min Rain = 0
KDC1 241559Z 08004KT 14/M03 A3016 RMK A01 T01421029  RH  031%=      5-min Rain = 0
KDC1 241600Z 10004KT 14/M03 A3016 RMK A01 T01431026  RH  031%=      5-min Rain = 0
KDC1 241601Z 09005KT 15/M02 A3016 RMK A01 T01461024  RH  031%=      5-min Rain = 0
KDC1 241602Z 08006KT 15/M03 A3016 RMK A01 T01471027  RH  030%=      5-min Rain = 0
KDC1 241603Z 09005KT 15/M03 A3016 RMK A01 T01451027  RH  030%=      5-min Rain = 0
KDC1 241604Z 10004KT 14/M03 A3016 RMK A01 T01441026  RH  031%=      5-min Rain = 0
KDC1 241605Z 09005KT 14/M02 A3016 RMK A01 T01431023  RH  032%=      5-min Rain = 0
KDC1 241606Z 09005KT 14/M02 A3016 RMK A01 T01411023  RH  032%=      5-min Rain = 0
KDC1 241607Z 10005KT 14/M02 A3016 RMK A01 T01421023  RH  032%=      5-min Rain = 0
KDC1 241608Z 09006KT 14/M02 A3016 RMK A01 T01411023  RH  032%=      5-min Rain = 0
KDC1 241609Z 11005KT 14/M02 A3016 RMK A01 T01401023  RH  032%=      5-min Rain = 0
KDC1 241610Z 11005KT 14/M02 A3016 RMK A01 T01411018  RH  033%=      5-min Rain = 0
KDC1 241611Z 10005KT 14/M02 A3016 RMK A01 T01431020  RH  032%=      5-min Rain = 0
KDC1 241612Z 10005KT 14/M02 A3016 RMK A01 T01441021  RH  032%=      5-min Rain = 0
KDC1 241613Z 12005KT 15/M02 A3016 RMK A01 T01451016  RH  033%=      5-min Rain = 0
KDC1 241614Z 12006KT 15/M02 A3016 RMK A01 T01471018  RH  032%=      5-min Rain = 0
KDC1 241615Z 13004KT 15/M02 A3016 RMK A01 T01471020  RH  031%=      5-min Rain = 0
KDC1 241616Z 11004KT 15/M02 A3016 RMK A01 T01481018  RH  032%=      5-min Rain = 0
KDC1 241617Z 09005KT 15/M02 A3016 RMK A01 T01481024  RH  030%=      5-min Rain = 0
KDC1 241618Z 09005KT 15/M03 A3016 RMK A01 T01481027  RH  030%=      5-min Rain = 0
KDC1 241619Z 08005KT 15/M03 A3016 RMK A01 T01471026  RH  030%=      5-min Rain = 0
KDC1 241620Z 10004KT 15/M03 A3016 RMK A01 T01471027  RH  030%=      5-min Rain = 0
KDC1 241621Z 12004KT 15/M02 A3016 RMK A01 T01501024  RH  030%=      5-min Rain = 0
KDC1 241622Z 13004KT 15/M02 A3016 RMK A01 T01511021  RH  030%=      5-min Rain = 0
KDC1 241623Z 10004KT 15/M03 A3016 RMK A01 T01521025  RH  030%=      5-min Rain = 0
KDC1 241624Z 11004KT 15/M02 A3016 RMK A01 T01521023  RH  030%=      5-min Rain = 0
KDC1 241625Z 09003KT 15/M03 A3016 RMK A01 T01511025  RH  030%=      5-min Rain = 0
KDC1 241626Z 10004KT 15/M02 A3016 RMK A01 T01521023  RH  030%=      5-min Rain = 0
KDC1 241627Z 11005KT 15/M02 A3016 RMK A01 T01531019  RH  031%=      5-min Rain = 0
KDC1 241628Z 13003KT 15/M02 A3016 RMK A01 T01541019  RH  030%=      5-min Rain = 0
KDC1 241629Z 14005KT 16/M02 A3016 RMK A01 T01551016  RH  031%=      5-min Rain = 0
KDC1 241630Z 13005KT 16/M02 A3016 RMK A01 T01561019  RH  030%=      5-min Rain = 0
KDC1 241631Z 12006KT 16/M02 A3016 RMK A01 T01561022  RH  030%=      5-min Rain = 0
KDC1 241632Z 10004KT 15/M02 A3016 RMK A01 T01541024  RH  029%=      5-min Rain = 0
KDC1 241633Z 11005KT 16/M02 A3016 RMK A01 T01551020  RH  030%=      5-min Rain = 0
KDC1 241634Z 11004KT 16/M02 A3016 RMK A01 T01561024  RH  029%=      5-min Rain = 0
KDC1 241635Z 11003KT 16/M02 A3016 RMK A01 T01561021  RH  030%=      5-min Rain = 0
KDC1 241636Z 11004KT 16/M02 A3016 RMK A01 T01561022  RH  029%=      5-min Rain = 0
KDC1 241637Z 11004KT 16/M02 A3016 RMK A01 T01571018  RH  030%=      5-min Rain = 0
KDC1 241638Z 10004KT 16/M02 A3016 RMK A01 T01591019  RH  029%=      5-min Rain = 0
KDC1 241639Z 13004KT 16/M02 A3016 RMK A01 T01601017  RH  030%=      5-min Rain = 0
KDC1 241640Z 11004KT 16/M02 A3016 RMK A01 T01591017  RH  030%=      5-min Rain = 0
KDC1 241641Z 11004KT 16/M02 A3016 RMK A01 T01601016  RH  030%=      5-min Rain = 0
KDC1 241642Z 12005KT 16/M02 A3016 RMK A01 T01621015  RH  030%=      5-min Rain = 0
KDC1 241643Z 13005KT 16/M02 A3016 RMK A01 T01621019  RH  029%=      5-min Rain = 0
KDC1 241644Z 11003KT 16/M02 A3016 RMK A01 T01621019  RH  029%=      5-min Rain = 0
KDC1 241645Z 12004KT 16/M01 A3016 RMK A01 T01631014  RH  030%=      5-min Rain = 0
KDC1 241646Z 10003KT 17/M02 A3016 RMK A01 T01661015  RH  029%=      5-min Rain = 0
KDC1 241647Z 11004KT 17/M02 A3016 RMK A01 T01671015  RH  029%=      5-min Rain = 0
KDC1 241648Z 11004KT 17/M02 A3016 RMK A01 T01671015  RH  029%=      5-min Rain = 0
KDC1 241649Z 12004KT 17/M01 A3016 RMK A01 T01671014  RH  029%=      5-min Rain = 0
KDC1 241650Z 12003KT 17/M01 A3016 RMK A01 T01671012  RH  029%=      5-min Rain = 0
KDC1 241651Z 15002KT 17/M01 A3016 RMK A01 T01691011  RH  029%=      5-min Rain = 0
KDC1 241652Z 13002KT 17/M01 A3016 RMK A01 T01721009  RH  029%=      5-min Rain = 0
KDC1 241653Z 10002KT 18/M01 A3016 RMK A01 T01751007  RH  029%=      5-min Rain = 0
KDC1 241654Z 09003KT 18/M01 A3016 RMK A01 T01771010  RH  028%=      5-min Rain = 0
KDC1 241655Z 09003KT 18/M01 A3016 RMK A01 T01761009  RH  028%=      5-min Rain = 0
KDC1 241656Z 10003KT 18/M01 A3016 RMK A01 T01771007  RH  029%=      5-min Rain = 0
KDC1 241657Z 10003KT 18/M01 A3016 RMK A01 T01781007  RH  029%=      5-min Rain = 0
KDC1 241658Z 11003KT 18/M01 A3016 RMK A01 T01781006  RH  029%=      5-min Rain = 0
KDC1 241659Z 10002KT 18/M01 A3016 RMK A01 T01761008  RH  029%=      5-min Rain = 0
KDC1 241700Z 11002KT 18/M01 A3016 RMK A01 T01771008  RH  029%=      5-min Rain = 0
KDC1 241701Z 10002KT 18/M01 A3016 RMK A01 T01781008  RH  028%=      5-min Rain = 0
KDC1 241702Z 10002KT 18/M01 A3016 RMK A01 T01781009  RH  028%=      5-min Rain = 0
KDC1 241703Z 04001KT 18/M01 A3016 RMK A01 T01791010  RH  028%=      5-min Rain = 0
KDC1 241704Z 00001KT 18/M01 A3016 RMK A01 T01791009  RH  028%=      5-min Rain = 0
KDC1 241705Z 11000KT 18/M01 A3016 RMK A01 T01811008  RH  028%=      5-min Rain = 0
KDC1 241706Z 13000KT 18/M01 A3016 RMK A01 T01831005  RH  028%=      5-min Rain = 0
KDC1 241707Z 08002KT 19/M01 A3016 RMK A01 T01861007  RH  027%=      5-min Rain = 0
KDC1 241708Z 09003KT 19/M01 A3016 RMK A01 T01871006  RH  027%=      5-min Rain = 0
KDC1 241709Z 10003KT 19/M01 A3016 RMK A01 T01871009  RH  027%=      5-min Rain = 0
KDC1 241710Z 09002KT 19/M01 A3016 RMK A01 T01871008  RH  027%=      5-min Rain = 0
KDC1 241711Z 05003KT 19/M00 A3016 RMK A01 T01891003  RH  027%=      5-min Rain = 0
KDC1 241712Z 04004KT 19/M01 A3016 RMK A01 T01901009  RH  026%=      5-min Rain = 0
KDC1 241713Z 05005KT 19/M01 A3016 RMK A01 T01901010  RH  026%=      5-min Rain = 0
KDC1 241714Z 06005KT 19/M01 A3016 RMK A01 T01891009  RH  026%=      5-min Rain = 0
KDC1 241715Z 05005KT 19/M01 A3016 RMK A01 T01891013  RH  025%=      5-min Rain = 0
KDC1 241716Z 05006KT 19/M01 A3016 RMK A01 T01891010  RH  026%=      5-min Rain = 0
KDC1 241717Z 03007KT 19/M01 A3016 RMK A01 T01911013  RH  025%=      5-min Rain = 0
KDC1 241718Z 01006KT 19/M01 A3016 RMK A01 T01911013  RH  025%=      5-min Rain = 0
KDC1 241719Z 34005KT 19/M02 A3016 RMK A01 T01921020  RH  024%=      5-min Rain = 0
KDC1 241720Z 02004KT 19/M03 A3015 RMK A01 T01941028  RH  022%=      5-min Rain = 0
KDC1 241721Z 04004KT 20/M02 A3015 RMK A01 T01951020  RH  023%=      5-min Rain = 0
KDC1 241722Z 05007KT 20/M01 A3015 RMK A01 T01971014  RH  024%=      5-min Rain = 0
KDC1 241723Z 04007KT 20/M02 A3015 RMK A01 T01991019  RH  023%=      5-min Rain = 0
KDC1 241724Z 04006KT 20/M02 A3015 RMK A01 T01991018  RH  023%=      5-min Rain = 0
KDC1 241725Z 02006KT 20/M02 A3015 RMK A01 T02001020  RH  023%=      5-min Rain = 0
KDC1 241726Z 01005KT 20/M02 A3015 RMK A01 T02011021  RH  022%=      5-min Rain = 0
KDC1 241727Z 01008KT 20/M02 A3015 RMK A01 T02021020  RH  022%=      5-min Rain = 0
KDC1 241728Z 03006KT 20/M02 A3015 RMK A01 T02031020  RH  022%=      5-min Rain = 0
KDC1 241729Z 04005KT 20/M02 A3015 RMK A01 T02041019  RH  022%=      5-min Rain = 0
KDC1 241730Z 02006KT 20/M02 A3015 RMK A01 T02021021  RH  022%=      5-min Rain = 0
KDC1 241731Z 35004KT 20/M02 A3015 RMK A01 T02021019  RH  022%=      5-min Rain = 0
KDC1 241732Z 31002KT 20/M02 A3015 RMK A01 T02031018  RH  023%=      5-min Rain = 0
KDC1 241733Z 19003KT 21/M01 A3015 RMK A01 T02051011  RH  023%=      5-min Rain = 0
KDC1 241734Z 27005G10KT 21/M01 A3015 RMK A01 T02071014  RH  023%=      5-min Rain = 0
KDC1 241735Z 27011KT 21/M04 A3015 RMK A01 T02101040  RH  018%=      5-min Rain = 0
KDC1 241736Z 27013KT 22/M04 A3015 RMK A01 T02171044  RH  017%=      5-min Rain = 0
KDC1 241737Z 29014KT 22/M04 A3015 RMK A01 T02221043  RH  017%=      5-min Rain = 0
KDC1 241738Z 29011KT 23/M05 A3015 RMK A01 T02251046  RH  016%=      5-min Rain = 0
KDC1 241739Z 28012KT 22/M05 A3015 RMK A01 T02241049  RH  016%=      5-min Rain = 0
KDC1 241740Z 28014G19KT 22/M05 A3015 RMK A01 T02231045  RH  016%=      5-min Rain = 0
KDC1 241741Z 28015KT 22/M04 A3015 RMK A01 T02241042  RH  017%=      5-min Rain = 0
KDC1 241742Z 27013KT 23/M04 A3015 RMK A01 T02251042  RH  016%=      5-min Rain = 0
KDC1 241743Z 28012KT 23/M04 A3015 RMK A01 T02261044  RH  016%=      5-min Rain = 0
KDC1 241744Z 28013KT 23/M05 A3015 RMK A01 T02251046  RH  016%=      5-min Rain = 0
KDC1 241745Z 28012KT 22/M04 A3015 RMK A01 T02241044  RH  016%=      5-min Rain = 0
KDC1 241746Z 30014KT 22/M04 A3015 RMK A01 T02241044  RH  016%=      5-min Rain = 0
KDC1 241747Z 29017KT 23/M04 A3015 RMK A01 T02251040  RH  017%=      5-min Rain = 0
KDC1 241748Z 29016KT 23/M04 A3015 RMK A01 T02271043  RH  016%=      5-min Rain = 0
KDC1 241749Z 27016KT 23/M05 A3015 RMK A01 T02251050  RH  016%=      5-min Rain = 0
KDC1 241750Z 27016KT 23/M05 A3015 RMK A01 T02251051  RH  015%=      5-min Rain = 0
KDC1 241751Z 26014KT 23/M04 A3015 RMK A01 T02281044  RH  016%=      5-min Rain = 0
KDC1 241752Z 26014KT 23/M04 A3015 RMK A01 T02311044  RH  016%=      5-min Rain = 0
KDC1 241753Z 26012KT 23/M05 A3015 RMK A01 T02291045  RH  016%=      5-min Rain = 0
KDC1 241754Z 27013KT 23/M04 A3015 RMK A01 T02291040  RH  016%=      5-min Rain = 0
KDC1 241755Z 27011KT 23/M04 A3015 RMK A01 T02311044  RH  016%=      5-min Rain = 0
KDC1 241756Z 25011G16KT 23/M04 A3014 RMK A01 T02301039  RH  016%=      5-min Rain = 0
KDC1 241757Z 26015KT 23/M04 A3014 RMK A01 T02311042  RH  016%=      5-min Rain = 0
KDC1 241758Z 26014KT 23/M04 A3014 RMK A01 T02301044  RH  016%=      5-min Rain = 0
KDC1 241759Z 27014KT 23/M04 A3014 RMK A01 T02301037  RH  017%=      5-min Rain = 0
KDC1 241800Z 26013G19KT 23/M04 A3014 RMK A01 T02311044  RH  016%=      5-min Rain = 0
KDC1 241801Z 26016KT 23/M04 A3014 RMK A01 T02301038  RH  016%=      5-min Rain = 0
KDC1 241802Z 26015KT 23/M04 A3014 RMK A01 T02291043  RH  016%=      5-min Rain = 0
KDC1 241803Z 25014KT 23/M05 A3014 RMK A01 T02281045  RH  016%=      5-min Rain = 0
KDC1 241804Z 25012KT 23/M05 A3014 RMK A01 T02271046  RH  016%=      5-min Rain = 0
KDC1 241805Z 26012KT 23/M05 A3014 RMK A01 T02251049  RH  016%=      5-min Rain = 0
KDC1 241806Z 27014KT 23/M04 A3014 RMK A01 T02261039  RH  017%=      5-min Rain = 0
KDC1 241807Z 27011KT 23/M04 A3014 RMK A01 T02281037  RH  017%=      5-min Rain = 0
KDC1 241808Z 28009KT 23/M04 A3014 RMK A01 T02281039  RH  016%=      5-min Rain = 0
KDC1 241809Z 26012KT 23/M05 A3014 RMK A01 T02281046  RH  016%=      5-min Rain = 0
KDC1 241810Z 26012G17KT 23/M04 A3014 RMK A01 T02271044  RH  016%=      5-min Rain = 0
KDC1 241811Z 27015KT 23/M04 A3014 RMK A01 T02281042  RH  016%=      5-min Rain = 0
KDC1 241812Z 28012KT 23/M05 A3014 RMK A01 T02281046  RH  016%=      5-min Rain = 0
KDC1 241813Z 28011KT 23/M05 A3014 RMK A01 T02261048  RH  016%=      5-min Rain = 0
KDC1 241814Z 27009KT 23/M05 A3014 RMK A01 T02251048  RH  016%=      5-min Rain = 0
KDC1 241815Z 27011KT 23/M05 A3014 RMK A01 T02251046  RH  016%=      5-min Rain = 0
KDC1 241816Z 27012KT 23/M04 A3014 RMK A01 T02271043  RH  016%=      5-min Rain = 0
KDC1 241817Z 28017KT 23/M04 A3013 RMK A01 T02291044  RH  016%=      5-min Rain = 0
KDC1 241818Z 28015KT 23/M05 A3013 RMK A01 T02291047  RH  015%=      5-min Rain = 0
KDC1 241819Z 27013KT 23/M05 A3013 RMK A01 T02281048  RH  015%=      5-min Rain = 0
KDC1 241820Z 28008KT 23/M05 A3013 RMK A01 T02251048  RH  016%=      5-min Rain = 0
KDC1 241821Z 28009KT 23/M04 A3013 RMK A01 T02261043  RH  016%=      5-min Rain = 0
KDC1 241822Z 26013G18KT 23/M04 A3013 RMK A01 T02291042  RH  016%=      5-min Rain = 0
KDC1 241823Z 26012KT 23/M04 A3013 RMK A01 T02321038  RH  016%=      5-min Rain = 0
KDC1 241824Z 29015KT 23/M04 A3013 RMK A01 T02341043  RH  015%=      5-min Rain = 0
KDC1 241825Z 28018G23KT 23/M05 A3013 RMK A01 T02331049  RH  015%=      5-min Rain = 0
KDC1 241826Z 27018KT 23/M05 A3013 RMK A01 T02311049  RH  015%=      5-min Rain = 0
KDC1 241827Z 28019KT 23/M05 A3013 RMK A01 T02311046  RH  015%=      5-min Rain = 0
KDC1 241828Z 27016KT 23/M05 A3013 RMK A01 T02331052  RH  015%=      5-min Rain = 0
KDC1 241829Z 27019KT 23/M05 A3013 RMK A01 T02331053  RH  014%=      5-min Rain = 0
KDC1 241830Z 27018KT 23/M05 A3013 RMK A01 T02331051  RH  015%=      5-min Rain = 0
KDC1 241831Z 28019KT 23/M05 A3013 RMK A01 T02321048  RH  015%=      5-min Rain = 0
KDC1 241832Z 28017KT 23/M05 A3013 RMK A01 T02301051  RH  015%=      5-min Rain = 0
KDC1 241833Z 28013KT 23/M05 A3013 RMK A01 T02301048  RH  015%=      5-min Rain = 0
KDC1 241834Z 29012KT 23/M05 A3013 RMK A01 T02301052  RH  015%=      5-min Rain = 0
KDC1 241835Z 28018KT 23/M05 A3013 RMK A01 T02301051  RH  015%=      5-min Rain = 0
KDC1 241836Z 28020KT 23/M05 A3013 RMK A01 T02301054  RH  015%=      5-min Rain = 0
KDC1 241837Z 27017KT 23/M06 A3013 RMK A01 T02311056  RH  014%=      5-min Rain = 0
KDC1 241838Z 27012KT 23/M06 A3013 RMK A01 T02331058  RH  014%=      5-min Rain = 0
KDC1 241839Z 27016G23KT 23/M05 A3013 RMK A01 T02331054  RH  014%=      5-min Rain = 0
KDC1 241840Z 27020KT 23/M06 A3013 RMK A01 T02331057  RH  014%=      5-min Rain = 0
KDC1 241841Z 27017KT 23/M06 A3013 RMK A01 T02321058  RH  014%=      5-min Rain = 0
KDC1 241842Z 26015KT 23/M05 A3013 RMK A01 T02311054  RH  014%=      5-min Rain = 0
KDC1 241843Z 27014KT 23/M05 A3013 RMK A01 T02311050  RH  015%=      5-min Rain = 0
KDC1 241844Z 28015KT 23/M05 A3013 RMK A01 T02321050  RH  015%=      5-min Rain = 0
KDC1 241845Z 28014KT 23/M06 A3013 RMK A01 T02331055  RH  014%=      5-min Rain = 0
KDC1 241846Z 27015KT 23/M05 A3013 RMK A01 T02321052  RH  015%=      5-min Rain = 0
KDC1 241847Z 26014KT 23/M05 A3013 RMK A01 T02331054  RH  014%=      5-min Rain = 0
KDC1 241848Z 27018KT 23/M06 A3012 RMK A01 T02341058  RH  014%=      5-min Rain = 0
KDC1 241849Z 27019KT 24/M06 A3012 RMK A01 T02351057  RH  014%=      5-min Rain = 0
KDC1 241850Z 27015KT 24/M06 A3012 RMK A01 T02351063  RH  013%=      5-min Rain = 0
KDC1 241851Z 26016KT 23/M06 A3012 RMK A01 T02341058  RH  014%=      5-min Rain = 0
KDC1 241852Z 27014KT 24/M05 A3013 RMK A01 T02351053  RH  014%=      5-min Rain = 0
KDC1 241853Z 28014KT 24/M05 A3012 RMK A01 T02371053  RH  014%=      5-min Rain = 0
KDC1 241854Z 25013KT 24/M05 A3013 RMK A01 T02371049  RH  014%=      5-min Rain = 0
KDC1 241855Z 25015KT 24/M05 A3012 RMK A01 T02381048  RH  015%=      5-min Rain = 0
KDC1 241856Z 26012KT 24/M05 A3013 RMK A01 T02371052  RH  014%=      5-min Rain = 0
KDC1 241857Z 27013KT 24/M05 A3013 RMK A01 T02361050  RH  014%=      5-min Rain = 0
KDC1 241858Z 28018KT 24/M05 A3012 RMK A01 T02381049  RH  014%=      5-min Rain = 0
KDC1 241859Z 29016KT 24/M05 A3012 RMK A01 T02401051  RH  014%=      5-min Rain = 0
KDC1 241900Z 28017KT 24/M05 A3012 RMK A01 T02401052  RH  014%=      5-min Rain = 0
KDC1 241901Z 28015KT 24/M05 A3012 RMK A01 T02411053  RH  014%=      5-min Rain = 0
KDC1 241902Z 27014KT 24/M06 A3012 RMK A01 T02391055  RH  014%=      5-min Rain = 0
KDC1 241903Z 29012KT 24/M05 A3012 RMK A01 T02391052  RH  014%=      5-min Rain = 0
KDC1 241904Z 28011KT 24/M06 A3012 RMK A01 T02391057  RH  013%=      5-min Rain = 0
KDC1 241905Z 28013G18KT 24/M06 A3012 RMK A01 T02361058  RH  014%=      5-min Rain = 0
KDC1 241906Z 27019KT 24/M06 A3012 RMK A01 T02371056  RH  014%=      5-min Rain = 0
KDC1 241907Z 27018G23KT 24/M06 A3012 RMK A01 T02381059  RH  013%=      5-min Rain = 0
KDC1 241908Z 27018KT 24/M06 A3012 RMK A01 T02391059  RH  013%=      5-min Rain = 0
KDC1 241909Z 27020KT 24/M06 A3012 RMK A01 T02421055  RH  013%=      5-min Rain = 0
KDC1 241910Z 27018KT 24/M06 A3012 RMK A01 T02421056  RH  013%=      5-min Rain = 0
KDC1 241911Z 28018KT 24/M06 A3012 RMK A01 T02421055  RH  013%=      5-min Rain = 0
KDC1 241912Z 27017KT 24/M06 A3012 RMK A01 T02401060  RH  013%=      5-min Rain = 0
KDC1 241913Z 26016KT 24/M06 A3012 RMK A01 T02381059  RH  013%=      5-min Rain = 0
KDC1 241914Z 27016KT 24/M06 A3012 RMK A01 T02361059  RH  014%=      5-min Rain = 0
KDC1 241915Z 27016KT 24/M06 A3012 RMK A01 T02361059  RH  014%=      5-min Rain = 0
KDC1 241916Z 28017KT 24/M06 A3012 RMK A01 T02381055  RH  014%=      5-min Rain = 0
KDC1 241917Z 27014KT 24/M06 A3012 RMK A01 T02401060  RH  013%=      5-min Rain = 0
KDC1 241918Z 27014G23KT 24/M06 A3012 RMK A01 T02401062  RH  013%=      5-min Rain = 0
KDC1 241919Z 28018KT 24/M06 A3011 RMK A01 T02391064  RH  013%=      5-min Rain = 0
KDC1 241920Z 26014KT 24/M06 A3012 RMK A01 T02381056  RH  014%=      5-min Rain = 0
KDC1 241921Z 27014KT 24/M05 A3012 RMK A01 T02401054  RH  014%=      5-min Rain = 0
KDC1 241922Z 26013G18KT 24/M05 A3011 RMK A01 T02411047  RH  014%=      5-min Rain = 0
KDC1 241923Z 27017KT 24/M05 A3011 RMK A01 T02441045  RH  014%=      5-min Rain = 0
KDC1 241924Z 27015KT 24/M06 A3011 RMK A01 T02441057  RH  013%=      5-min Rain = 0
KDC1 241925Z 25012KT 24/M06 A3011 RMK A01 T02411058  RH  013%=      5-min Rain = 0
KDC1 241926Z 27013KT 24/M05 A3011 RMK A01 T02391054  RH  014%=      5-min Rain = 0
KDC1 241927Z 27014KT 24/M05 A3011 RMK A01 T02421050  RH  014%=      5-min Rain = 0
KDC1 241928Z 26011KT 24/M05 A3011 RMK A01 T02441053  RH  014%=      5-min Rain = 0
KDC1 241929Z 25009KT 24/M06 A3011 RMK A01 T02431057  RH  013%=      5-min Rain = 0
KDC1 241930Z 24010G15KT 24/M06 A3011 RMK A01 T02401055  RH  014%=      5-min Rain = 0
KDC1 241931Z 25012KT 24/M06 A3011 RMK A01 T02421055  RH  013%=      5-min Rain = 0
KDC1 241932Z 25013KT 24/M05 A3011 RMK A01 T02431054  RH  013%=      5-min Rain = 0
KDC1 241933Z 24009KT 24/M05 A3011 RMK A01 T02411052  RH  014%=      5-min Rain = 0
KDC1 241934Z 25011KT 24/M05 A3011 RMK A01 T02401053  RH  014%=      5-min Rain = 0
KDC1 241935Z 26013KT 24/M05 A3011 RMK A01 T02411048  RH  014%=      5-min Rain = 0
KDC1 241936Z 27015KT 24/M05 A3011 RMK A01 T02401047  RH  014%=      5-min Rain = 0
KDC1 241937Z 29016KT 24/M05 A3011 RMK A01 T02411050  RH  014%=      5-min Rain = 0
KDC1 241938Z 28017KT 24/M06 A3011 RMK A01 T02431055  RH  013%=      5-min Rain = 0
KDC1 241939Z 27020KT 24/M05 A3011 RMK A01 T02431053  RH  014%=      5-min Rain = 0
KDC1 241940Z 27016KT 24/M06 A3011 RMK A01 T02421056  RH  013%=      5-min Rain = 0
KDC1 241941Z 28017KT 24/M06 A3011 RMK A01 T02421056  RH  013%=      5-min Rain = 0
KDC1 241942Z 28019KT 24/M06 A3011 RMK A01 T02431057  RH  013%=      5-min Rain = 0
KDC1 241943Z 28016KT 24/M06 A3011 RMK A01 T02411059  RH  013%=      5-min Rain = 0
KDC1 241944Z 29018KT 24/M06 A3011 RMK A01 T02421059  RH  013%=      5-min Rain = 0
KDC1 241945Z 28015KT 24/M06 A3011 RMK A01 T02401060  RH  013%=      5-min Rain = 0
KDC1 241946Z 29012KT 24/M06 A3011 RMK A01 T02401056  RH  013%=      5-min Rain = 0
KDC1 241947Z 29012KT 24/M06 A3011 RMK A01 T02401063  RH  013%=      5-min Rain = 0
KDC1 241948Z 29011KT 24/M06 A3011 RMK A01 T02391060  RH  013%=      5-min Rain = 0
KDC1 241949Z 29015G21KT 24/M05 A301 RMK A01 T02431047  RH  014%=      5-min Rain = 0
KDC1 241950Z 28017KT 25/M05 A301 RMK A01 T02471051  RH  013%=      5-min Rain = 0
KDC1 241951Z 27018KT 25/M05 A301 RMK A01 T02491045  RH  014%=      5-min Rain = 0
KDC1 241952Z 27016KT 25/M06 A301 RMK A01 T02511060  RH  012%=      5-min Rain = 0
KDC1 241953Z 28014KT 25/M06 A301 RMK A01 T02481059  RH  013%=      5-min Rain = 0
KDC1 241954Z 28011KT 25/M05 A301 RMK A01 T02501054  RH  013%=      5-min Rain = 0
KDC1 241955Z 25013KT 25/M05 A301 RMK A01 T02501048  RH  014%=      5-min Rain = 0
KDC1 241956Z 26014KT 25/M05 A301 RMK A01 T02481051  RH  013%=      5-min Rain = 0
KDC1 241957Z 26015KT 25/M05 A301 RMK A01 T02461046  RH  014%=      5-min Rain = 0
KDC1 241958Z 25014KT 25/M05 A301 RMK A01 T02451053  RH  013%=      5-min Rain = 0
KDC1 241959Z 25016KT 24/M05 A301 RMK A01 T02421049  RH  014%=      5-min Rain = 0
KDC1 242000Z 27017KT 24/M04 A301 RMK A01 T02441042  RH  015%=      5-min Rain = 0
KDC1 242001Z 26015KT 25/M05 A301 RMK A01 T02461049  RH  014%=      5-min Rain = 0
KDC1 242002Z 28016KT 24/M05 A301 RMK A01 T02441049  RH  014%=      5-min Rain = 0
KDC1 242003Z 27015KT 24/M05 A301 RMK A01 T02441054  RH  013%=      5-min Rain = 0
KDC1 242004Z 26015KT 24/M05 A301 RMK A01 T02441050  RH  014%=      5-min Rain = 0
KDC1 242005Z 24011KT 24/M05 A301 RMK A01 T02431051  RH  014%=      5-min Rain = 0
KDC1 242006Z 27017G24KT 24/M05 A301 RMK A01 T02421047  RH  014%=      5-min Rain = 0
KDC1 242007Z 27020G25KT 25/M05 A301 RMK A01 T02461048  RH  014%=      5-min Rain = 0
KDC1 242008Z 27018KT 25/M05 A301 RMK A01 T02471054  RH  013%=      5-min Rain = 0
KDC1 242009Z 27013KT 25/M05 A301 RMK A01 T02461053  RH  013%=      5-min Rain = 0
KDC1 242010Z 27012KT 25/M05 A301 RMK A01 T02481052  RH  013%=      5-min Rain = 0
KDC1 242011Z 25010KT 25/M05 A301 RMK A01 T02481053  RH  013%=      5-min Rain = 0
KDC1 242012Z 26010KT 25/M06 A301 RMK A01 T02461057  RH  013%=      5-min Rain = 0
KDC1 242013Z 29017KT 24/M06 A301 RMK A01 T02441056  RH  013%=      5-min Rain = 0
KDC1 242014Z 28018KT 25/M07 A3009 RMK A01 T02461065  RH  012%=      5-min Rain = 0
KDC1 242015Z 28015KT 25/M06 A3009 RMK A01 T02461060  RH  013%=      5-min Rain = 0
KDC1 242016Z 29015KT 25/M06 A3009 RMK A01 T02481058  RH  013%=      5-min Rain = 0
KDC1 242017Z 28020G27KT 25/M06 A3009 RMK A01 T02491055  RH  013%=      5-min Rain = 0
KDC1 242018Z 28020G25KT 25/M06 A3009 RMK A01 T02511061  RH  012%=      5-min Rain = 0
KDC1 242019Z 28016KT 25/M06 A3009 RMK A01 T02481061  RH  012%=      5-min Rain = 0
KDC1 242020Z 27019KT 25/M06 A3009 RMK A01 T02461060  RH  013%=      5-min Rain = 0
KDC1 242021Z 26018KT 25/M06 A3009 RMK A01 T02461060  RH  013%=      5-min Rain = 0
KDC1 242022Z 26012KT 25/M07 A3009 RMK A01 T02471065  RH  012%=      5-min Rain = 0
KDC1 242023Z 26013KT 25/M06 A3009 RMK A01 T02471064  RH  012%=      5-min Rain = 0
KDC1 242024Z 26016KT 25/M07 A3009 RMK A01 T02451066  RH  012%=      5-min Rain = 0
KDC1 242025Z 27015KT 25/M06 A3009 RMK A01 T02461058  RH  013%=      5-min Rain = 0
KDC1 242026Z 27020KT 25/M06 A3009 RMK A01 T02481059  RH  013%=      5-min Rain = 0
KDC1 242027Z 27018KT 25/M06 A3009 RMK A01 T02491064  RH  012%=      5-min Rain = 0
KDC1 242028Z 28018KT 25/M06 A3009 RMK A01 T02491059  RH  013%=      5-min Rain = 0
KDC1 242029Z 28018KT 25/M06 A3009 RMK A01 T02501059  RH  012%=      5-min Rain = 0
KDC1 242030Z 28014KT 25/M06 A3009 RMK A01 T02481064  RH  012%=      5-min Rain = 0
KDC1 242031Z 30013KT 25/M06 A3009 RMK A01 T02451063  RH  012%=      5-min Rain = 0
KDC1 242032Z 30011KT 25/M06 A3009 RMK A01 T02471063  RH  012%=      5-min Rain = 0
KDC1 242033Z 28010KT 25/M07 A3009 RMK A01 T02461067  RH  012%=      5-min Rain = 0
KDC1 242034Z 26015KT 25/M06 A3009 RMK A01 T02461059  RH  013%=      5-min Rain = 0
KDC1 242035Z 25014KT 25/M06 A3009 RMK A01 T02471063  RH  012%=      5-min Rain = 0
KDC1 242036Z 27015G20KT 25/M07 A3009 RMK A01 T02451065  RH  012%=      5-min Rain = 0
KDC1 242037Z 26014KT 25/M07 A3009 RMK A01 T02461070  RH  012%=      5-min Rain = 0
KDC1 242038Z 26014KT 24/M07 A3009 RMK A01 T02441069  RH  012%=      5-min Rain = 0
KDC1 242039Z 26014KT 24/M07 A3009 RMK A01 T02441066  RH  012%=      5-min Rain = 0
KDC1 242040Z 26012KT 24/M07 A3009 RMK A01 T02441068  RH  012%=      5-min Rain = 0
KDC1 242041Z 26011KT 24/M06 A3009 RMK A01 T02441064  RH  012%=      5-min Rain = 0
KDC1 242042Z 28012KT 24/M07 A3009 RMK A01 T02441065  RH  012%=      5-min Rain = 0
KDC1 242043Z 29013KT 25/M06 A3009 RMK A01 T02471061  RH  013%=      5-min Rain = 0
KDC1 242044Z 29014KT 25/M06 A3009 RMK A01 T02481062  RH  012%=      5-min Rain = 0
KDC1 242045Z 28014KT 25/M07 A3009 RMK A01 T02481067  RH  012%=      5-min Rain = 0
KDC1 242046Z 27010KT 25/M08 A3009 RMK A01 T02461077  RH  011%=      5-min Rain = 0
KDC1 242047Z 27010KT 24/M08 A3008 RMK A01 T02431079  RH  011%=      5-min Rain = 0
KDC1 242048Z 26013KT 25/M07 A3008 RMK A01 T02451072  RH  012%=      5-min Rain = 0
KDC1 242049Z 25011KT 25/M07 A3008 RMK A01 T02461074  RH  011%=      5-min Rain = 0
KDC1 242050Z 27012G19KT 25/M07 A3008 RMK A01 T02451065  RH  012%=      5-min Rain = 0
KDC1 242051Z 28019KT 25/M06 A3008 RMK A01 T02491061  RH  012%=      5-min Rain = 0
KDC1 242052Z 29015KT 25/M07 A3008 RMK A01 T02501065  RH  012%=      5-min Rain = 0
KDC1 242053Z 29018KT 25/M07 A3008 RMK A01 T02541066  RH  012%=      5-min Rain = 0
KDC1 242054Z 29016KT 25/M07 A3008 RMK A01 T02531071  RH  011%=      5-min Rain = 0
KDC1 242055Z 28016G22KT 25/M07 A3008 RMK A01 T02521066  RH  012%=      5-min Rain = 0
KDC1 242056Z 27016G21KT 26/M07 A3008 RMK A01 T02551066  RH  011%=      5-min Rain = 0
KDC1 242057Z 27018KT 25/M07 A3008 RMK A01 T02541073  RH  011%=      5-min Rain = 0
KDC1 242058Z 28020KT 25/M06 A3008 RMK A01 T02521062  RH  012%=      5-min Rain = 0
KDC1 242059Z 28019KT 26/M07 A3008 RMK A01 T02551066  RH  011%=      5-min Rain = 0
KDC1 242100Z 28018KT 26/M07 A3008 RMK A01 T02551070  RH  011%=      5-min Rain = 0
KDC1 242101Z 27018KT 25/M07 A3008 RMK A01 T02521072  RH  011%=      5-min Rain = 0
KDC1 242102Z 27016KT 25/M07 A3008 RMK A01 T02511070  RH  011%=      5-min Rain = 0
KDC1 242103Z 28012KT 25/M08 A3008 RMK A01 T02481078  RH  011%=      5-min Rain = 0
KDC1 242104Z 28013KT 25/M07 A3008 RMK A01 T02461072  RH  012%=      5-min Rain = 0
KDC1 242105Z 27019KT 25/M07 A3008 RMK A01 T02481074  RH  011%=      5-min Rain = 0
KDC1 242106Z 27015KT 25/M08 A3008 RMK A01 T02481077  RH  011%=      5-min Rain = 0
KDC1 242107Z 26015KT 25/M07 A3008 RMK A01 T02491074  RH  011%=      5-min Rain = 0
KDC1 242108Z 27017KT 25/M07 A3008 RMK A01 T02511072  RH  011%=      5-min Rain = 0
KDC1 242109Z 27014KT 25/M08 A3008 RMK A01 T02521075  RH  011%=      5-min Rain = 0
KDC1 242110Z 26014KT 25/M08 A3008 RMK A01 T02501078  RH  011%=      5-min Rain = 0
KDC1 242111Z 27016KT 25/M07 A3008 RMK A01 T02481074  RH  011%=      5-min Rain = 0
KDC1 242112Z 27014KT 25/M07 A3008 RMK A01 T02501074  RH  011%=      5-min Rain = 0
KDC1 242113Z 28017KT 25/M07 A3008 RMK A01 T02501069  RH  011%=      5-min Rain = 0
KDC1 242114Z 28015KT 25/M06 A3008 RMK A01 T02521061  RH  012%=      5-min Rain = 0
KDC1 242115Z 26014G19KT 25/M06 A3008 RMK A01 T02531062  RH  012%=      5-min Rain = 0
KDC1 242116Z 25016G21KT 25/M07 A3008 RMK A01 T02521065  RH  012%=      5-min Rain = 0
KDC1 242117Z 25015KT 25/M08 A3008 RMK A01 T02491075  RH  011%=      5-min Rain = 0
KDC1 242118Z 25010KT 25/M07 A3008 RMK A01 T02461070  RH  012%=      5-min Rain = 0
KDC1 242119Z 26014G21KT 25/M07 A3008 RMK A01 T02471071  RH  012%=      5-min Rain = 0
KDC1 242120Z 27018G23KT 25/M07 A3008 RMK A01 T02471074  RH  011%=      5-min Rain = 0
KDC1 242121Z 27018KT 25/M08 A3008 RMK A01 T02481083  RH  010%=      5-min Rain = 0
KDC1 242122Z 26017KT 25/M07 A3008 RMK A01 T02491073  RH  011%=      5-min Rain = 0
KDC1 242123Z 26017KT 25/M08 A3008 RMK A01 T02511078  RH  011%=      5-min Rain = 0
KDC1 242124Z 27018KT 25/M08 A3008 RMK A01 T02501076  RH  011%=      5-min Rain = 0
KDC1 242125Z 26015KT 25/M07 A3008 RMK A01 T02501071  RH  011%=      5-min Rain = 0
KDC1 242126Z 25016KT 25/M07 A3008 RMK A01 T02511067  RH  012%=      5-min Rain = 0
KDC1 242127Z 26017KT 25/M08 A3008 RMK A01 T02501075  RH  011%=      5-min Rain = 0
KDC1 242128Z 26018KT 25/M07 A3008 RMK A01 T02491071  RH  011%=      5-min Rain = 0
KDC1 242129Z 26019KT 25/M07 A3008 RMK A01 T02481069  RH  012%=      5-min Rain = 0
KDC1 242130Z 27016KT 25/M07 A3008 RMK A01 T02481074  RH  011%=      5-min Rain = 0
KDC1 242131Z 29012G17KT 25/M08 A3008 RMK A01 T02491079  RH  011%=      5-min Rain = 0
KDC1 242132Z 28012KT 25/M08 A3008 RMK A01 T02481077  RH  011%=      5-min Rain = 0
KDC1 242133Z 27014KT 25/M07 A3008 RMK A01 T02481073  RH  011%=      5-min Rain = 0
KDC1 242134Z 29017KT 25/M06 A3008 RMK A01 T02491063  RH  012%=      5-min Rain = 0
KDC1 242135Z 29016KT 25/M07 A3008 RMK A01 T02501069  RH  012%=      5-min Rain = 0
KDC1 242136Z 28017KT 25/M07 A3008 RMK A01 T02491066  RH  012%=      5-min Rain = 0
KDC1 242137Z 28016KT 25/M07 A3008 RMK A01 T02491070  RH  011%=      5-min Rain = 0
KDC1 242138Z 28015KT 25/M07 A3008 RMK A01 T02521073  RH  011%=      5-min Rain = 0
KDC1 242139Z 28012KT 25/M08 A3008 RMK A01 T02491079  RH  011%=      5-min Rain = 0
KDC1 242140Z 27014KT 25/M07 A3008 RMK A01 T02481072  RH  011%=      5-min Rain = 0
KDC1 242141Z 26011KT 25/M07 A3008 RMK A01 T02491074  RH  011%=      5-min Rain = 0
KDC1 242142Z 27014KT 25/M07 A3008 RMK A01 T02481073  RH  011%=      5-min Rain = 0
KDC1 242143Z 27011KT 25/M07 A3008 RMK A01 T02471074  RH  011%=      5-min Rain = 0
KDC1 242144Z 27011KT 25/M07 A3008 RMK A01 T02481074  RH  011%=      5-min Rain = 0
KDC1 242145Z 25010KT 25/M07 A3008 RMK A01 T02491069  RH  012%=      5-min Rain = 0
KDC1 242146Z 25008KT 25/M07 A3008 RMK A01 T02491069  RH  012%=      5-min Rain = 0
KDC1 242147Z 26011KT 25/M07 A3008 RMK A01 T02511067  RH  012%=      5-min Rain = 0
KDC1 242148Z 30011KT 25/M07 A3007 RMK A01 T02521066  RH  012%=      5-min Rain = 0
KDC1 242149Z 29014KT 26/M07 A3007 RMK A01 T02551065  RH  011%=      5-min Rain = 0
KDC1 242150Z 29013KT 25/M07 A3007 RMK A01 T02541071  RH  011%=      5-min Rain = 0
KDC1 242151Z 29016G21KT 25/M07 A3007 RMK A01 T02531068  RH  011%=      5-min Rain = 0
KDC1 242152Z 27016KT 25/M06 A3007 RMK A01 T02541062  RH  012%=      5-min Rain = 0
KDC1 242153Z 26016KT 26/M06 A3007 RMK A01 T02551061  RH  012%=      5-min Rain = 0
KDC1 242154Z 26014KT 25/M07 A3007 RMK A01 T02511067  RH  012%=      5-min Rain = 0
KDC1 242155Z 27017KT 25/M06 A3007 RMK A01 T02491063  RH  012%=      5-min Rain = 0
KDC1 242156Z 27015KT 25/M07 A3007 RMK A01 T02491069  RH  012%=      5-min Rain = 0
KDC1 242157Z 28011KT 25/M07 A3007 RMK A01 T02491074  RH  011%=      5-min Rain = 0
KDC1 242158Z 28009KT 25/M08 A3007 RMK A01 T02471076  RH  011%=      5-min Rain = 0
KDC1 242159Z 29009KT 25/M07 A3007 RMK A01 T02461073  RH  011%=      5-min Rain = 0
KDC1 242200Z 28010KT 25/M07 A3007 RMK A01 T02461073  RH  011%=      5-min Rain = 0
KDC1 242201Z 28008G13KT 25/M07 A3007 RMK A01 T02461068  RH  012%=      5-min Rain = 0
KDC1 242202Z 26010KT 25/M07 A3007 RMK A01 T02461066  RH  012%=      5-min Rain = 0
KDC1 242203Z 27010KT 25/M06 A3007 RMK A01 T02471063  RH  012%=      5-min Rain = 0
KDC1 242204Z 28013KT 25/M06 A3007 RMK A01 T02501062  RH  012%=      5-min Rain = 0
KDC1 242205Z 26017KT 25/M06 A3007 RMK A01 T02531064  RH  012%=      5-min Rain = 0
KDC1 242206Z 27016KT 25/M07 A3007 RMK A01 T02541071  RH  011%=      5-min Rain = 0
KDC1 242207Z 29012KT 25/M07 A3007 RMK A01 T02521073  RH  011%=      5-min Rain = 0
KDC1 242208Z 27011KT 25/M07 A3007 RMK A01 T02521074  RH  011%=      5-min Rain = 0
KDC1 242209Z 28010KT 25/M08 A3007 RMK A01 T02521075  RH  011%=      5-min Rain = 0
KDC1 242210Z 27012G17KT 25/M07 A3007 RMK A01 T02521073  RH  011%=      5-min Rain = 0
KDC1 242211Z 25016KT 25/M07 A3007 RMK A01 T02511065  RH  012%=      5-min Rain = 0
KDC1 242212Z 26018KT 25/M07 A3007 RMK A01 T02521066  RH  012%=      5-min Rain = 0
KDC1 242213Z 26015KT 25/M07 A3007 RMK A01 T02521071  RH  011%=      5-min Rain = 0
KDC1 242214Z 26015G20KT 25/M07 A3007 RMK A01 T02511074  RH  011%=      5-min Rain = 0
KDC1 242215Z 28014KT 25/M08 A3007 RMK A01 T02521078  RH  011%=      5-min Rain = 0
KDC1 242216Z 28014KT 25/M08 A3007 RMK A01 T02521083  RH  010%=      5-min Rain = 0
KDC1 242217Z 27013KT 25/M08 A3007 RMK A01 T02521079  RH  011%=      5-min Rain = 0
KDC1 242218Z 26012KT 25/M08 A3007 RMK A01 T02511075  RH  011%=      5-min Rain = 0
KDC1 242219Z 27017KT 25/M07 A3007 RMK A01 T02521070  RH  011%=      5-min Rain = 0
KDC1 242220Z 26015KT 25/M07 A3007 RMK A01 T02521072  RH  011%=      5-min Rain = 0
KDC1 242221Z 27015KT 25/M07 A3007 RMK A01 T02531067  RH  012%=      5-min Rain = 0
KDC1 242222Z 27015KT 25/M07 A3007 RMK A01 T02531072  RH  011%=      5-min Rain = 0
KDC1 242223Z 27015KT 25/M08 A3007 RMK A01 T02521076  RH  011%=      5-min Rain = 0
KDC1 242224Z 27016KT 25/M07 A3007 RMK A01 T02501072  RH  011%=      5-min Rain = 0
KDC1 242225Z 27013KT 25/M08 A3007 RMK A01 T02521075  RH  011%=      5-min Rain = 0
KDC1 242226Z 27012KT 25/M08 A3007 RMK A01 T02511079  RH  011%=      5-min Rain = 0
KDC1 242227Z 27017KT 25/M08 A3007 RMK A01 T02501078  RH  011%=      5-min Rain = 0
KDC1 242228Z 28021KT 25/M07 A3007 RMK A01 T02501071  RH  011%=      5-min Rain = 0
KDC1 242229Z 28020KT 25/M07 A3007 RMK A01 T02501071  RH  011%=      5-min Rain = 0
KDC1 242230Z 27017KT 25/M08 A3007 RMK A01 T02511078  RH  011%=      5-min Rain = 0
KDC1 242231Z 28017KT 25/M07 A3007 RMK A01 T02511070  RH  011%=      5-min Rain = 0
KDC1 242232Z 28020KT 25/M07 A3007 RMK A01 T02531068  RH  011%=      5-min Rain = 0
KDC1 242233Z 26017KT 25/M07 A3007 RMK A01 T02521068  RH  011%=      5-min Rain = 0
KDC1 242234Z 26015KT 25/M07 A3007 RMK A01 T02521067  RH  012%=      5-min Rain = 0
KDC1 242235Z 26015KT 25/M07 A3007 RMK A01 T02511066  RH  012%=      5-min Rain = 0
KDC1 242236Z 25016KT 25/M07 A3007 RMK A01 T02511069  RH  011%=      5-min Rain = 0
KDC1 242237Z 26015KT 25/M08 A3007 RMK A01 T02491078  RH  011%=      5-min Rain = 0
KDC1 242238Z 27014G21KT 25/M08 A3007 RMK A01 T02481075  RH  011%=      5-min Rain = 0
KDC1 242239Z 29018G23KT 25/M08 A3007 RMK A01 T02501079  RH  011%=      5-min Rain = 0
KDC1 242240Z 27017KT 25/M08 A3007 RMK A01 T02501081  RH  010%=      5-min Rain = 0
KDC1 242241Z 26014KT 25/M09 A3007 RMK A01 T02501087  RH  010%=      5-min Rain = 0
KDC1 242242Z 25014KT 25/M09 A3007 RMK A01 T02481091  RH  010%=      5-min Rain = 0
KDC1 242243Z 26014KT 25/M08 A3007 RMK A01 T02461084  RH  011%=      5-min Rain = 0
KDC1 242244Z 28014KT 25/M07 A3007 RMK A01 T02471074  RH  011%=      5-min Rain = 0
KDC1 242245Z 29014KT 25/M07 A3007 RMK A01 T02491065  RH  012%=      5-min Rain = 0
KDC1 242246Z 29014KT 25/M06 A3007 RMK A01 T02511060  RH  012%=      5-min Rain = 0
KDC1 242247Z 29015KT 25/M07 A3007 RMK A01 T02511070  RH  011%=      5-min Rain = 0
KDC1 242248Z 30015KT 25/M08 A3007 RMK A01 T02501077  RH  011%=      5-min Rain = 0
KDC1 242249Z 30013KT 25/M08 A3007 RMK A01 T02501081  RH  011%=      5-min Rain = 0
KDC1 242250Z 28013KT 25/M07 A3007 RMK A01 T02491068  RH  012%=      5-min Rain = 0
KDC1 242251Z 28016KT 25/M07 A3007 RMK A01 T02511071  RH  011%=      5-min Rain = 0
KDC1 242252Z 29014KT 25/M07 A3007 RMK A01 T02511073  RH  011%=      5-min Rain = 0
KDC1 242253Z 30015KT 25/M08 A3007 RMK A01 T02501079  RH  011%=      5-min Rain = 0
KDC1 242254Z 30014KT 25/M08 A3007 RMK A01 T02481079  RH  011%=      5-min Rain = 0
KDC1 242255Z 29014KT 25/M08 A3007 RMK A01 T02471082  RH  011%=      5-min Rain = 0
KDC1 242256Z 29014KT 25/M08 A3007 RMK A01 T02471078  RH  011%=      5-min Rain = 0
KDC1 242257Z 29012KT 25/M08 A3007 RMK A01 T02481079  RH  011%=      5-min Rain = 0
KDC1 242258Z 30011KT 25/M08 A3007 RMK A01 T02481075  RH  011%=      5-min Rain = 0
KDC1 242259Z 30012KT 25/M08 A3007 RMK A01 T02481079  RH  011%=      5-min Rain = 0
KDC1 242300Z 28012KT 25/M08 A3007 RMK A01 T02481075  RH  011%=      5-min Rain = 0
KDC1 242301Z 28014KT 25/M07 A3007 RMK A01 T02491074  RH  011%=      5-min Rain = 0
KDC1 242302Z 27013KT 25/M08 A3007 RMK A01 T02491075  RH  011%=      5-min Rain = 0
KDC1 242303Z 27012KT 25/M07 A3007 RMK A01 T02491065  RH  012%=      5-min Rain = 0
KDC1 242304Z 29012KT 25/M07 A3007 RMK A01 T02501068  RH  012%=      5-min Rain = 0
KDC1 242305Z 28014KT 25/M08 A3007 RMK A01 T02521075  RH  011%=      5-min Rain = 0
KDC1 242306Z 27015KT 25/M07 A3007 RMK A01 T02511069  RH  011%=      5-min Rain = 0
KDC1 242307Z 26016KT 25/M07 A3007 RMK A01 T02501074  RH  011%=      5-min Rain = 0
KDC1 242308Z 26014KT 25/M07 A3007 RMK A01 T02491073  RH  011%=      5-min Rain = 0
KDC1 242309Z 26015KT 25/M07 A3007 RMK A01 T02481071  RH  011%=      5-min Rain = 0
KDC1 242310Z 26016KT 25/M08 A3007 RMK A01 T02471077  RH  011%=      5-min Rain = 0
KDC1 242311Z 27013KT 25/M08 A3007 RMK A01 T02461078  RH  011%=      5-min Rain = 0
KDC1 242312Z 27012KT 25/M08 A3007 RMK A01 T02461082  RH  011%=      5-min Rain = 0
KDC1 242313Z 26012KT 25/M07 A3008 RMK A01 T02481069  RH  012%=      5-min Rain = 0
KDC1 242314Z 27017KT 25/M07 A3007 RMK A01 T02491066  RH  012%=      5-min Rain = 0
KDC1 242315Z 27016KT 25/M07 A3007 RMK A01 T02481072  RH  011%=      5-min Rain = 0
KDC1 242316Z 27016KT 25/M08 A3008 RMK A01 T02471076  RH  011%=      5-min Rain = 0
KDC1 242317Z 27012KT 25/M08 A3008 RMK A01 T02471075  RH  011%=      5-min Rain = 0
KDC1 242318Z 26011KT 25/M07 A3008 RMK A01 T02471071  RH  012%=      5-min Rain = 0
KDC1 242319Z 25014G20KT 25/M07 A3007 RMK A01 T02481066  RH  012%=      5-min Rain = 0
KDC1 242320Z 25016G21KT 25/M06 A3007 RMK A01 T02471064  RH  012%=      5-min Rain = 0
KDC1 242321Z 28017KT 25/M06 A3007 RMK A01 T02461060  RH  013%=      5-min Rain = 0
KDC1 242322Z 28016KT 25/M07 A3007 RMK A01 T02461066  RH  012%=      5-min Rain = 0
KDC1 242323Z 27018KT 25/M06 A3007 RMK A01 T02481062  RH  012%=      5-min Rain = 0
KDC1 242324Z 28012KT 25/M07 A3007 RMK A01 T02481071  RH  011%=      5-min Rain = 0
KDC1 242325Z 28014KT 25/M06 A3007 RMK A01 T02471063  RH  012%=      5-min Rain = 0
KDC1 242326Z 26018KT 25/M06 A3007 RMK A01 T02471061  RH  012%=      5-min Rain = 0
KDC1 242327Z 26016KT 25/M07 A3007 RMK A01 T02461071  RH  012%=      5-min Rain = 0
KDC1 242328Z 26015KT 25/M07 A3007 RMK A01 T02451068  RH  012%=      5-min Rain = 0
KDC1 242329Z 26013KT 24/M07 A3007 RMK A01 T02431070  RH  012%=      5-min Rain = 0
KDC1 242330Z 25012KT 24/M07 A3007 RMK A01 T02431067  RH  012%=      5-min Rain = 0
KDC1 242331Z 25012KT 24/M07 A3007 RMK A01 T02431068  RH  012%=      5-min Rain = 0
KDC1 242332Z 26010KT 24/M07 A3007 RMK A01 T02431067  RH  012%=      5-min Rain = 0
KDC1 242333Z 26011KT 24/M06 A3007 RMK A01 T02431062  RH  013%=      5-min Rain = 0
KDC1 242334Z 27014G19KT 24/M06 A3007 RMK A01 T02431056  RH  013%=      5-min Rain = 0
KDC1 242335Z 29013KT 24/M06 A3007 RMK A01 T02431056  RH  013%=      5-min Rain = 0
KDC1 242336Z 29012KT 25/M07 A3007 RMK A01 T02451065  RH  012%=      5-min Rain = 0
KDC1 242337Z 28015KT 25/M06 A3007 RMK A01 T02451057  RH  013%=      5-min Rain = 0
KDC1 242338Z 27013KT 24/M06 A3008 RMK A01 T02441055  RH  013%=      5-min Rain = 0
KDC1 242339Z 27014KT 24/M06 A3008 RMK A01 T02441055  RH  013%=      5-min Rain = 0
KDC1 242340Z 27013KT 24/M06 A3008 RMK A01 T02431058  RH  013%=      5-min Rain = 0
KDC1 242341Z 26011KT 24/M06 A3008 RMK A01 T02431063  RH  013%=      5-min Rain = 0
KDC1 242342Z 26008KT 24/M06 A3008 RMK A01 T02421064  RH  013%=      5-min Rain = 0
KDC1 242343Z 27008KT 24/M07 A3008 RMK A01 T02421065  RH  012%=      5-min Rain = 0
KDC1 242344Z 27008KT 24/M06 A3008 RMK A01 T02421060  RH  013%=      5-min Rain = 0
KDC1 242345Z 27008KT 24/M06 A3008 RMK A01 T02421064  RH  013%=      5-min Rain = 0
KDC1 242346Z 27009KT 24/M07 A3008 RMK A01 T02411070  RH  012%=      5-min Rain = 0
KDC1 242347Z 27008KT 24/M07 A3008 RMK A01 T02411069  RH  012%=      5-min Rain = 0
KDC1 242348Z 26007KT 24/M07 A3008 RMK A01 T02411065  RH  013%=      5-min Rain = 0
KDC1 242349Z 26008KT 24/M05 A3008 RMK A01 T02421053  RH  014%=      5-min Rain = 0
KDC1 242350Z 26009KT 24/M05 A3008 RMK A01 T02421049  RH  014%=      5-min Rain = 0
KDC1 242351Z 25015KT 24/M05 A3008 RMK A01 T02411053  RH  014%=      5-min Rain = 0
KDC1 242352Z 25015KT 24/M06 A3008 RMK A01 T02391061  RH  013%=      5-min Rain = 0
KDC1 242353Z 25014KT 24/M06 A3008 RMK A01 T02391063  RH  013%=      5-min Rain = 0
KDC1 242354Z 25016KT 24/M07 A3008 RMK A01 T02381068  RH  012%=      5-min Rain = 0
KDC1 242355Z 25015KT 24/M07 A3008 RMK A01 T02381071  RH  012%=      5-min Rain = 0
KDC1 242356Z 25013KT 24/M07 A3008 RMK A01 T02381074  RH  012%=      5-min Rain = 0
KDC1 242357Z 25011KT 24/M07 A3008 RMK A01 T02381073  RH  012%=      5-min Rain = 0
KDC1 242358Z 25012KT 24/M07 A3008 RMK A01 T02381069  RH  012%=      5-min Rain = 0
KDC1 242359Z 25010KT 24/M06 A3008 RMK A01 T02381064  RH  013%=      5-min Rain = 0
KDC1 250000Z 26010KT 24/M06 A3008 RMK A01 T02381058  RH  014%=      5-min Rain = 0
KDC1 250001Z 26010KT 24/M06 A3008 RMK A01 T02381056  RH  014%=      5-min Rain = 0
KDC1 250002Z 26013KT 24/M05 A3008 RMK A01 T02381053  RH  014%=      5-min Rain = 0
KDC1 250003Z 26012KT 24/M06 A3009 RMK A01 T02381059  RH  013%=      5-min Rain = 0
KDC1 250004Z 26011KT 24/M06 A3009 RMK A01 T02381062  RH  013%=      5-min Rain = 0
KDC1 250005Z 26009KT 24/M07 A3009 RMK A01 T02381071  RH  012%=      5-min Rain = 0
KDC1 250006Z 27008KT 24/M07 A3009 RMK A01 T02381067  RH  013%=      5-min Rain = 0
KDC1 250007Z 28008KT 24/M06 A3009 RMK A01 T02391064  RH  013%=      5-min Rain = 0
KDC1 250008Z 27009G15KT 24/M06 A3009 RMK A01 T02391060  RH  013%=      5-min Rain = 0
KDC1 250009Z 26014KT 24/M06 A3009 RMK A01 T02401060  RH  013%=      5-min Rain = 0
KDC1 250010Z 26014KT 24/M06 A3009 RMK A01 T02391061  RH  013%=      5-min Rain = 0
KDC1 250011Z 27014KT 24/M06 A3009 RMK A01 T02371059  RH  013%=      5-min Rain = 0
KDC1 250012Z 26011KT 24/M06 A3009 RMK A01 T02371062  RH  013%=      5-min Rain = 0
KDC1 250013Z 27012KT 24/M06 A3009 RMK A01 T02361056  RH  014%=      5-min Rain = 0
KDC1 250014Z 26011KT 24/M05 A3009 RMK A01 T02361053  RH  014%=      5-min Rain = 0
KDC1 250015Z 26011KT 24/M05 A3009 RMK A01 T02351050  RH  015%=      5-min Rain = 0
KDC1 250016Z 27010KT 23/M05 A3009 RMK A01 T02341050  RH  015%=      5-min Rain = 0
KDC1 250017Z 28010KT 23/M05 A3009 RMK A01 T02341053  RH  014%=      5-min Rain = 0
KDC1 250018Z 27012KT 23/M06 A3009 RMK A01 T02341057  RH  014%=      5-min Rain = 0
KDC1 250019Z 28012KT 24/M06 A3009 RMK A01 T02351059  RH  014%=      5-min Rain = 0
KDC1 250020Z 28012KT 24/M06 A3009 RMK A01 T02351055  RH  014%=      5-min Rain = 0
KDC1 250021Z 28011KT 24/M05 A3009 RMK A01 T02351054  RH  014%=      5-min Rain = 0
KDC1 250022Z 28010KT 23/M05 A3009 RMK A01 T02341053  RH  014%=      5-min Rain = 0
KDC1 250023Z 28010KT 23/M05 A3009 RMK A01 T02341047  RH  015%=      5-min Rain = 0
KDC1 250024Z 28015KT 23/M05 A3009 RMK A01 T02331049  RH  015%=      5-min Rain = 0
KDC1 250025Z 28016KT 23/M06 A3009 RMK A01 T02331055  RH  014%=      5-min Rain = 0
KDC1 250026Z 28016KT 23/M06 A3009 RMK A01 T02321061  RH  014%=      5-min Rain = 0
KDC1 250027Z 28016KT 23/M06 A3009 RMK A01 T02321063  RH  013%=      5-min Rain = 0
KDC1 250028Z 28017KT 23/M06 A3009 RMK A01 T02321061  RH  014%=      5-min Rain = 0
KDC1 250029Z 28015KT 23/M06 A3009 RMK A01 T02321057  RH  014%=      5-min Rain = 0
KDC1 250030Z 27014KT 23/M06 A3009 RMK A01 T02311055  RH  014%=      5-min Rain = 0
KDC1 250031Z 27012KT 23/M06 A3009 RMK A01 T02311057  RH  014%=      5-min Rain = 0
KDC1 250032Z 27014KT 23/M06 A3009 RMK A01 T02301060  RH  014%=      5-min Rain = 0
KDC1 250033Z 28015KT 23/M06 A3009 RMK A01 T02301057  RH  014%=      5-min Rain = 0
KDC1 250034Z 28011KT 23/M06 A3009 RMK A01 T02301057  RH  014%=      5-min Rain = 0
KDC1 250035Z 28011KT 23/M05 A3009 RMK A01 T02291051  RH  015%=      5-min Rain = 0
KDC1 250036Z 28011KT 23/M05 A3009 RMK A01 T02281052  RH  015%=      5-min Rain = 0
KDC1 250037Z 27011KT 23/M05 A3009 RMK A01 T02281049  RH  015%=      5-min Rain = 0
KDC1 250038Z 27011KT 23/M05 A3009 RMK A01 T02271052  RH  015%=      5-min Rain = 0
KDC1 250039Z 28010KT 23/M06 A3009 RMK A01 T02271056  RH  015%=      5-min Rain = 0
KDC1 250040Z 28009KT 23/M05 A3009 RMK A01 T02271054  RH  015%=      5-min Rain = 0
KDC1 250041Z 28009KT 23/M05 A301 RMK A01 T02261050  RH  015%=      5-min Rain = 0
KDC1 250042Z 27008KT 23/M05 A301 RMK A01 T02251048  RH  016%=      5-min Rain = 0
KDC1 250043Z 27007KT 22/M05 A301 RMK A01 T02241048  RH  016%=      5-min Rain = 0
KDC1 250044Z 27007KT 22/M05 A301 RMK A01 T02241053  RH  015%=      5-min Rain = 0
KDC1 250045Z 28006KT 22/M05 A301 RMK A01 T02231052  RH  016%=      5-min Rain = 0
KDC1 250046Z 28008KT 22/M05 A301 RMK A01 T02221050  RH  016%=      5-min Rain = 0
KDC1 250047Z 28011KT 22/M06 A301 RMK A01 T02221055  RH  015%=      5-min Rain = 0
KDC1 250048Z 28011KT 22/M05 A301 RMK A01 T02221053  RH  015%=      5-min Rain = 0
KDC1 250049Z 28011KT 22/M05 A301 RMK A01 T02211047  RH  016%=      5-min Rain = 0
KDC1 250050Z 28011KT 22/M04 A301 RMK A01 T02201043  RH  017%=      5-min Rain = 0
KDC1 250051Z 28011KT 22/M05 A301 RMK A01 T02191045  RH  017%=      5-min Rain = 0
KDC1 250052Z 29011KT 22/M04 A301 RMK A01 T02181044  RH  017%=      5-min Rain = 0
KDC1 250053Z 29010KT 22/M04 A301 RMK A01 T02171043  RH  017%=      5-min Rain = 0
KDC1 250054Z 28010KT 22/M04 A301 RMK A01 T02151041  RH  018%=      5-min Rain = 0
KDC1 250055Z 28010KT 21/M04 A301 RMK A01 T02131043  RH  018%=      5-min Rain = 0
KDC1 250056Z 28011KT 21/M04 A301 RMK A01 T02131043  RH  018%=      5-min Rain = 0
KDC1 250057Z 27011KT 21/M05 A301 RMK A01 T02121045  RH  017%=      5-min Rain = 0
KDC1 250058Z 27011KT 21/M05 A301 RMK A01 T02121046  RH  017%=      5-min Rain = 0
KDC1 250059Z 27012KT 21/M05 A301 RMK A01 T02121050  RH  017%=      5-min Rain = 0
KDC1 250100Z 27011KT 21/M06 A301 RMK A01 T02121055  RH  016%=      5-min Rain = 0
KDC1 250101Z 26010KT 21/M06 A301 RMK A01 T02111055  RH  016%=      5-min Rain = 0
KDC1 250102Z 26010KT 21/M05 A301 RMK A01 T02111053  RH  017%=      5-min Rain = 0
KDC1 250103Z 26010KT 21/M06 A301 RMK A01 T02111055  RH  016%=      5-min Rain = 0
KDC1 250104Z 26010KT 21/M05 A301 RMK A01 T02111054  RH  016%=      5-min Rain = 0
KDC1 250105Z 26011KT 21/M05 A301 RMK A01 T02091052  RH  017%=      5-min Rain = 0
KDC1 250106Z 27011KT 21/M05 A301 RMK A01 T02081052  RH  017%=      5-min Rain = 0
KDC1 250107Z 27013KT 21/M06 A301 RMK A01 T02081055  RH  017%=      5-min Rain = 0
KDC1 250108Z 27011KT 21/M06 A301 RMK A01 T02091060  RH  016%=      5-min Rain = 0
KDC1 250109Z 27011KT 21/M06 A301 RMK A01 T02081060  RH  016%=      5-min Rain = 0
KDC1 250110Z 27009KT 21/M06 A301 RMK A01 T02071059  RH  016%=      5-min Rain = 0
KDC1 250111Z 27010KT 21/M05 A301 RMK A01 T02051052  RH  017%=      5-min Rain = 0
KDC1 250112Z 27009KT 20/M05 A301 RMK A01 T02031051  RH  018%=      5-min Rain = 0
KDC1 250113Z 27009KT 20/M05 A301 RMK A01 T02011050  RH  018%=      5-min Rain = 0
KDC1 250114Z 26008KT 20/M05 A301 RMK A01 T02001049  RH  018%=      5-min Rain = 0
KDC1 250115Z 26009KT 20/M05 A301 RMK A01 T01991048  RH  018%=      5-min Rain = 0
KDC1 250116Z 26009KT 20/M05 A301 RMK A01 T01991047  RH  019%=      5-min Rain = 0
KDC1 250117Z 27009KT 20/M04 A301 RMK A01 T01981044  RH  019%=      5-min Rain = 0
KDC1 250118Z 27009KT 20/M04 A301 RMK A01 T01971041  RH  020%=      5-min Rain = 0
KDC1 250119Z 27009KT 19/M04 A3011 RMK A01 T01941039  RH  020%=      5-min Rain = 0
KDC1 250120Z 27008KT 19/M04 A3011 RMK A01 T01931039  RH  021%=      5-min Rain = 0
KDC1 250121Z 27007KT 19/M04 A3011 RMK A01 T01911043  RH  020%=      5-min Rain = 0
KDC1 250122Z 28006KT 19/M05 A3011 RMK A01 T01901046  RH  020%=      5-min Rain = 0
KDC1 250123Z 28006KT 19/M05 A3011 RMK A01 T01881050  RH  019%=      5-min Rain = 0
KDC1 250124Z 28005KT 19/M05 A3011 RMK A01 T01871053  RH  019%=      5-min Rain = 0
KDC1 250125Z 28005KT 19/M05 A3011 RMK A01 T01851051  RH  020%=      5-min Rain = 0
KDC1 250126Z 28005KT 18/M05 A3011 RMK A01 T01841047  RH  020%=      5-min Rain = 0
KDC1 250127Z 28004KT 18/M04 A3011 RMK A01 T01821043  RH  021%=      5-min Rain = 0
KDC1 250128Z 29004KT 18/M04 A3011 RMK A01 T01811039  RH  022%=      5-min Rain = 0
KDC1 250129Z 29004KT 18/M03 A3011 RMK A01 T01791032  RH  023%=      5-min Rain = 0
KDC1 250130Z 29005KT 18/M02 A3011 RMK A01 T01781023  RH  025%=      5-min Rain = 0
KDC1 250131Z 28005KT 18/M02 A3011 RMK A01 T01771019  RH  026%=      5-min Rain = 0
KDC1 250132Z 29006KT 18/M02 A3011 RMK A01 T01771018  RH  027%=      5-min Rain = 0
KDC1 250133Z 28005KT 18/M02 A3011 RMK A01 T01781017  RH  027%=      5-min Rain = 0
KDC1 250134Z 28006KT 18/M02 A3011 RMK A01 T01781018  RH  026%=      5-min Rain = 0
KDC1 250135Z 29005KT 18/M02 A3012 RMK A01 T01781022  RH  026%=      5-min Rain = 0
KDC1 250136Z 29005KT 18/M02 A3012 RMK A01 T01781019  RH  026%=      5-min Rain = 0
KDC1 250137Z 30005KT 18/M02 A3012 RMK A01 T01781019  RH  026%=      5-min Rain = 0
KDC1 250138Z 30005KT 18/M03 A3012 RMK A01 T01761025  RH  025%=      5-min Rain = 0
KDC1 250139Z 29006KT 17/M03 A3012 RMK A01 T01721033  RH  024%=      5-min Rain = 0
KDC1 250140Z 29007KT 17/M04 A3012 RMK A01 T01701039  RH  024%=      5-min Rain = 0
KDC1 250141Z 29007KT 17/M04 A3012 RMK A01 T01691043  RH  023%=      5-min Rain = 0
KDC1 250142Z 29007KT 17/M05 A3012 RMK A01 T01681046  RH  023%=      5-min Rain = 0
KDC1 250143Z 29007KT 17/M05 A3012 RMK A01 T01681045  RH  023%=      5-min Rain = 0
KDC1 250144Z 29007KT 17/M05 A3012 RMK A01 T01681048  RH  023%=      5-min Rain = 0
KDC1 250145Z 29006KT 17/M05 A3012 RMK A01 T01691050  RH  022%=      5-min Rain = 0
KDC1 250146Z 29006KT 17/M05 A3012 RMK A01 T01691051  RH  022%=      5-min Rain = 0
KDC1 250147Z 29006KT 17/M05 A3012 RMK A01 T01691047  RH  022%=      5-min Rain = 0
KDC1 250148Z 29006KT 17/M04 A3012 RMK A01 T01681044  RH  023%=      5-min Rain = 0
KDC1 250149Z 29006KT 17/M04 A3012 RMK A01 T01671043  RH  023%=      5-min Rain = 0
KDC1 250150Z 29006KT 17/M05 A3012 RMK A01 T01671048  RH  023%=      5-min Rain = 0
KDC1 250151Z 29006KT 17/M05 A3012 RMK A01 T01661048  RH  023%=      5-min Rain = 0
KDC1 250152Z 29006KT 16/M05 A3012 RMK A01 T01641050  RH  023%=      5-min Rain = 0
KDC1 250153Z 29006KT 16/M05 A3012 RMK A01 T01621051  RH  023%=      5-min Rain = 0
KDC1 250154Z 29006KT 16/M05 A3013 RMK A01 T01601051  RH  023%=      5-min Rain = 0
KDC1 250155Z 29007KT 16/M05 A3013 RMK A01 T01591051  RH  023%=      5-min Rain = 0
KDC1 250156Z 29007KT 16/M05 A3013 RMK A01 T01571051  RH  024%=      5-min Rain = 0
KDC1 250157Z 29008KT 16/M05 A3013 RMK A01 T01551051  RH  024%=      5-min Rain = 0
KDC1 250158Z 29008KT 15/M05 A3013 RMK A01 T01531050  RH  024%=      5-min Rain = 0
KDC1 250159Z 29007KT 15/M05 A3013 RMK A01 T01511047  RH  025%=      5-min Rain = 0
KDC1 250200Z 29007KT 15/M05 A3013 RMK A01 T01521050  RH  024%=      5-min Rain = 0
KDC1 250201Z 29007KT 16/M05 A3013 RMK A01 T01551051  RH  024%=      5-min Rain = 0
KDC1 250202Z 29007KT 16/M05 A3013 RMK A01 T01551052  RH  024%=      5-min Rain = 0
KDC1 250203Z 28007KT 15/M05 A3013 RMK A01 T01541049  RH  024%=      5-min Rain = 0
KDC1 250204Z 28007KT 15/M04 A3013 RMK A01 T01511036  RH  027%=      5-min Rain = 0
KDC1 250205Z 29007KT 15/M03 A3013 RMK A01 T01491029  RH  029%=      5-min Rain = 0
KDC1 250206Z 29007KT 15/M03 A3013 RMK A01 T01481030  RH  029%=      5-min Rain = 0
KDC1 250207Z 29007KT 15/M04 A3013 RMK A01 T01471036  RH  028%=      5-min Rain = 0
KDC1 250208Z 29007KT 15/M04 A3013 RMK A01 T01481039  RH  027%=      5-min Rain = 0
KDC1 250209Z 29007KT 15/M04 A3013 RMK A01 T01481038  RH  027%=      5-min Rain = 0
KDC1 250210Z 29007KT 15/M04 A3013 RMK A01 T01471035  RH  028%=      5-min Rain = 0
KDC1 250211Z 29007KT 15/M03 A3013 RMK A01 T01461033  RH  029%=      5-min Rain = 0
KDC1 250212Z 29007KT 14/M03 A3013 RMK A01 T01441030  RH  030%=      5-min Rain = 0
KDC1 250213Z 29007KT 14/M03 A3013 RMK A01 T01421028  RH  031%=      5-min Rain = 0
KDC1 250214Z 29007KT 14/M02 A3013 RMK A01 T01411024  RH  032%=      5-min Rain = 0
KDC1 250215Z 29008KT 14/M02 A3014 RMK A01 T01391022  RH  033%=      5-min Rain = 0
KDC1 250216Z 29008KT 14/M02 A3014 RMK A01 T01361020  RH  034%=      5-min Rain = 0
KDC1 250217Z 29008KT 14/M02 A3014 RMK A01 T01351017  RH  035%=      5-min Rain = 0
KDC1 250218Z 29008KT 13/M02 A3014 RMK A01 T01341016  RH  035%=      5-min Rain = 0
KDC1 250219Z 29008KT 14/M02 A3014 RMK A01 T01351016  RH  035%=      5-min Rain = 0
KDC1 250220Z 29008KT 14/M01 A3014 RMK A01 T01361013  RH  036%=      5-min Rain = 0
KDC1 250221Z 29008KT 14/M01 A3014 RMK A01 T01361013  RH  036%=      5-min Rain = 0
KDC1 250222Z 30008KT 13/M01 A3014 RMK A01 T01341013  RH  036%=      5-min Rain = 0
KDC1 250223Z 30008KT 13/M01 A3014 RMK A01 T01311010  RH  038%=      5-min Rain = 0
KDC1 250224Z 30008KT 13/M01 A3014 RMK A01 T01301009  RH  038%=      5-min Rain = 0
KDC1 250225Z 29008KT 13/M01 A3014 RMK A01 T01281009  RH  039%=      5-min Rain = 0
KDC1 250226Z 29008KT 13/M01 A3014 RMK A01 T01261010  RH  039%=      5-min Rain = 0
KDC1 250227Z 29007KT 13/M01 A3014 RMK A01 T01251010  RH  039%=      5-min Rain = 0
KDC1 250228Z 28008KT 13/M01 A3014 RMK A01 T01251006  RH  040%=      5-min Rain = 0
KDC1 250229Z 28008KT 13/M01 A3014 RMK A01 T01251005  RH  041%=      5-min Rain = 0
KDC1 250230Z 28007KT 13/M01 A3014 RMK A01 T01251007  RH  040%=      5-min Rain = 0
KDC1 250231Z 28008KT 13/M01 A3014 RMK A01 T01261014  RH  038%=      5-min Rain = 0
KDC1 250232Z 28008KT 13/M02 A3014 RMK A01 T01271018  RH  037%=      5-min Rain = 0
KDC1 250233Z 27008KT 13/M02 A3014 RMK A01 T01281020  RH  036%=      5-min Rain = 0
KDC1 250234Z 28008KT 13/M03 A3014 RMK A01 T01301025  RH  034%=      5-min Rain = 0
KDC1 250235Z 27008KT 13/M03 A3014 RMK A01 T01341027  RH  033%=      5-min Rain = 0
KDC1 250236Z 28008KT 14/M03 A3014 RMK A01 T01371029  RH  031%=      5-min Rain = 0
KDC1 250237Z 28009KT 14/M03 A3014 RMK A01 T01371034  RH  030%=      5-min Rain = 0
KDC1 250238Z 27009KT 14/M04 A3014 RMK A01 T01361036  RH  030%=      5-min Rain = 0
KDC1 250239Z 27008KT 13/M04 A3014 RMK A01 T01341040  RH  030%=      5-min Rain = 0
KDC1 250240Z 27009KT 13/M04 A3014 RMK A01 T01341041  RH  029%=      5-min Rain = 0
KDC1 250241Z 27009KT 13/M04 A3014 RMK A01 T01341043  RH  029%=      5-min Rain = 0
KDC1 250242Z 27009KT 13/M05 A3014 RMK A01 T01341046  RH  028%=      5-min Rain = 0
KDC1 250243Z 27009KT 13/M05 A3014 RMK A01 T01341049  RH  028%=      5-min Rain = 0
KDC1 250244Z 27009KT 14/M05 A3014 RMK A01 T01351050  RH  027%=      5-min Rain = 0
KDC1 250245Z 27009KT 14/M05 A3014 RMK A01 T01361049  RH  027%=      5-min Rain = 0
KDC1 250246Z 27008KT 14/M05 A3014 RMK A01 T01361048  RH  028%=      5-min Rain = 0
KDC1 250247Z 27009KT 14/M05 A3014 RMK A01 T01361047  RH  028%=      5-min Rain = 0
KDC1 250248Z 28009KT 14/M05 A3015 RMK A01 T01351047  RH  028%=      5-min Rain = 0
KDC1 250249Z 28009KT 14/M05 A3015 RMK A01 T01351045  RH  028%=      5-min Rain = 0
KDC1 250250Z 28010KT 13/M04 A3015 RMK A01 T01341042  RH  029%=      5-min Rain = 0
KDC1 250251Z 28010KT 13/M04 A3015 RMK A01 T01331041  RH  030%=      5-min Rain = 0
KDC1 250252Z 28010KT 13/M04 A3015 RMK A01 T01331040  RH  030%=      5-min Rain = 0
KDC1 250253Z 28010KT 13/M04 A3015 RMK A01 T01321039  RH  030%=      5-min Rain = 0
KDC1 250254Z 28010KT 13/M04 A3015 RMK A01 T01321039  RH  030%=      5-min Rain = 0
KDC1 250255Z 28009KT 13/M04 A3015 RMK A01 T01311037  RH  031%=      5-min Rain = 0
KDC1 250256Z 28010KT 13/M04 A3015 RMK A01 T01301036  RH  031%=      5-min Rain = 0
KDC1 250257Z 28010KT 13/M04 A3015 RMK A01 T01301036  RH  031%=      5-min Rain = 0
KDC1 250258Z 28010KT 13/M04 A3015 RMK A01 T01301037  RH  031%=      5-min Rain = 0
KDC1 250259Z 27010KT 13/M04 A3015 RMK A01 T01301039  RH  031%=      5-min Rain = 0
KDC1 250300Z 27010KT 13/M04 A3015 RMK A01 T01301042  RH  030%=      5-min Rain = 0
KDC1 250301Z 27010KT 13/M04 A3015 RMK A01 T01301042  RH  030%=      5-min Rain = 0
KDC1 250302Z 28011KT 13/M04 A3015 RMK A01 T01301041  RH  030%=      5-min Rain = 0
KDC1 250303Z 28011KT 13/M04 A3015 RMK A01 T01301042  RH  030%=      5-min Rain = 0
KDC1 250304Z 27011KT 13/M04 A3015 RMK A01 T01311043  RH  029%=      5-min Rain = 0
KDC1 250305Z 27010KT 13/M05 A3015 RMK A01 T01311045  RH  029%=      5-min Rain = 0
KDC1 250306Z 27009KT 13/M05 A3015 RMK A01 T01311046  RH  029%=      5-min Rain = 0
KDC1 250307Z 27010KT 13/M05 A3015 RMK A01 T01321046  RH  029%=      5-min Rain = 0
KDC1 250308Z 28010KT 13/M05 A3015 RMK A01 T01311046  RH  029%=      5-min Rain = 0
KDC1 250309Z 27010KT 13/M05 A3015 RMK A01 T01301047  RH  029%=      5-min Rain = 0
KDC1 250310Z 27010KT 13/M05 A3015 RMK A01 T01301047  RH  029%=      5-min Rain = 0
KDC1 250311Z 28010KT 13/M05 A3015 RMK A01 T01301047  RH  029%=      5-min Rain = 0
KDC1 250312Z 28010KT 13/M05 A3015 RMK A01 T01301046  RH  029%=      5-min Rain = 0
KDC1 250313Z 27010KT 13/M05 A3015 RMK A01 T01301045  RH  029%=      5-min Rain = 0
KDC1 250314Z 28009KT 13/M05 A3015 RMK A01 T01301046  RH  029%=      5-min Rain = 0
KDC1 250315Z 27009KT 13/M05 A3015 RMK A01 T01291047  RH  029%=      5-min Rain = 0
KDC1 250316Z 28009KT 13/M05 A3015 RMK A01 T01291048  RH  029%=      5-min Rain = 0
KDC1 250317Z 27010KT 13/M05 A3015 RMK A01 T01291048  RH  029%=      5-min Rain = 0
KDC1 250318Z 27010KT 13/M05 A3015 RMK A01 T01291048  RH  029%=      5-min Rain = 0
KDC1 250319Z 28009KT 13/M05 A3015 RMK A01 T01281049  RH  029%=      5-min Rain = 0
KDC1 250320Z 28009KT 13/M05 A3015 RMK A01 T01281048  RH  029%=      5-min Rain = 0
KDC1 250321Z 27009KT 13/M05 A3015 RMK A01 T01281046  RH  029%=      5-min Rain = 0
KDC1 250322Z 28009KT 13/M05 A3016 RMK A01 T01271045  RH  030%=      5-min Rain = 0
KDC1 250323Z 28010KT 13/M04 A3016 RMK A01 T01261043  RH  031%=      5-min Rain = 0
KDC1 250324Z 28010KT 13/M04 A3016 RMK A01 T01261041  RH  031%=      5-min Rain = 0
KDC1 250325Z 28010KT 13/M04 A3016 RMK A01 T01251042  RH  031%=      5-min Rain = 0
KDC1 250326Z 28010KT 13/M05 A3016 RMK A01 T01251045  RH  030%=      5-min Rain = 0
KDC1 250327Z 28010KT 13/M05 A3016 RMK A01 T01251047  RH  030%=      5-min Rain = 0
KDC1 250328Z 28010KT 13/M05 A3016 RMK A01 T01251048  RH  029%=      5-min Rain = 0
KDC1 250329Z 28010KT 13/M05 A3016 RMK A01 T01261048  RH  029%=      5-min Rain = 0
KDC1 250330Z 28010KT 13/M05 A3016 RMK A01 T01251049  RH  029%=      5-min Rain = 0
KDC1 250331Z 28009KT 13/M05 A3016 RMK A01 T01251049  RH  029%=      5-min Rain = 0
KDC1 250332Z 28010KT 13/M05 A3016 RMK A01 T01251049  RH  029%=      5-min Rain = 0
KDC1 250333Z 28009KT 13/M05 A3016 RMK A01 T01251048  RH  030%=      5-min Rain = 0
KDC1 250334Z 28009KT 12/M05 A3016 RMK A01 T01241046  RH  030%=      5-min Rain = 0
KDC1 250335Z 28009KT 12/M05 A3016 RMK A01 T01231046  RH  030%=      5-min Rain = 0
KDC1 250336Z 28009KT 12/M05 A3016 RMK A01 T01221046  RH  031%=      5-min Rain = 0
KDC1 250337Z 28009KT 12/M05 A3016 RMK A01 T01211047  RH  031%=      5-min Rain = 0
KDC1 250338Z 28009KT 12/M05 A3016 RMK A01 T01211048  RH  030%=      5-min Rain = 0
KDC1 250339Z 28009KT 12/M05 A3016 RMK A01 T01211048  RH  031%=      5-min Rain = 0
KDC1 250340Z 28008KT 12/M05 A3016 RMK A01 T01201047  RH  031%=      5-min Rain = 0
KDC1 250341Z 29009KT 12/M05 A3016 RMK A01 T01191047  RH  031%=      5-min Rain = 0
KDC1 250342Z 28008KT 12/M05 A3016 RMK A01 T01181048  RH  031%=      5-min Rain = 0
KDC1 250343Z 29008KT 12/M05 A3016 RMK A01 T01161047  RH  032%=      5-min Rain = 0
KDC1 250344Z 28009KT 12/M05 A3016 RMK A01 T01151049  RH  031%=      5-min Rain = 0
KDC1 250345Z 28009KT 11/M05 A3016 RMK A01 T01141051  RH  031%=      5-min Rain = 0
KDC1 250346Z 28009KT 11/M05 A3016 RMK A01 T01141052  RH  031%=      5-min Rain = 0
KDC1 250347Z 28009KT 11/M05 A3016 RMK A01 T01141052  RH  031%=      5-min Rain = 0
KDC1 250348Z 28009KT 11/M05 A3016 RMK A01 T01141053  RH  031%=      5-min Rain = 0
KDC1 250349Z 28009KT 12/M05 A3016 RMK A01 T01151052  RH  031%=      5-min Rain = 0
KDC1 250350Z 28009KT 12/M05 A3016 RMK A01 T01171052  RH  030%=      5-min Rain = 0
KDC1 250351Z 28008KT 12/M05 A3016 RMK A01 T01191051  RH  030%=      5-min Rain = 0
KDC1 250352Z 28007KT 12/M05 A3016 RMK A01 T01201050  RH  030%=      5-min Rain = 0
KDC1 250353Z 28008KT 12/M05 A3017 RMK A01 T01201048  RH  030%=      5-min Rain = 0
KDC1 250354Z 28008KT 12/M05 A3017 RMK A01 T01201047  RH  031%=      5-min Rain = 0
KDC1 250355Z 28008KT 12/M05 A3017 RMK A01 T01191046  RH  031%=      5-min Rain = 0
KDC1 250356Z 28007KT 12/M05 A3017 RMK A01 T01181046  RH  032%=      5-min Rain = 0
KDC1 250357Z 29007KT 12/M05 A3017 RMK A01 T01171046  RH  032%=      5-min Rain = 0
KDC1 250358Z 28006KT 12/M05 A3017 RMK A01 T01161045  RH  032%=      5-min Rain = 0
KDC1 250359Z 28007KT 11/M05 A3017 RMK A01 T01141045  RH  033%=      5-min Rain = 0
KDC1 250400Z 28007KT 11/M04 A3017 RMK A01 T01121044  RH  033%=      5-min Rain = 0
KDC1 250401Z 28007KT 11/M04 A3017 RMK A01 T01101044  RH  034%=      5-min Rain = 0
KDC1 250402Z 28008KT 11/M04 A3017 RMK A01 T01101044  RH  034%=      5-min Rain = 0
KDC1 250403Z 28008KT 11/M04 A3017 RMK A01 T01091044  RH  034%=      5-min Rain = 0
KDC1 250404Z 29008KT 11/M05 A3017 RMK A01 T01081046  RH  034%=      5-min Rain = 0
KDC1 250405Z 28009KT 11/M05 A3017 RMK A01 T01091048  RH  033%=      5-min Rain = 0
KDC1 250406Z 29009KT 11/M05 A3017 RMK A01 T01101051  RH  032%=      5-min Rain = 0
KDC1 250407Z 29009KT 11/M05 A3017 RMK A01 T01111051  RH  032%=      5-min Rain = 0
KDC1 250408Z 29009KT 11/M05 A3017 RMK A01 T01111051  RH  031%=      5-min Rain = 0
KDC1 250409Z 29009KT 11/M05 A3017 RMK A01 T01111051  RH  032%=      5-min Rain = 0
KDC1 250410Z 29010KT 11/M05 A3017 RMK A01 T01111051  RH  032%=      5-min Rain = 0
KDC1 250411Z 29009KT 11/M05 A3017 RMK A01 T01111052  RH  031%=      5-min Rain = 0
KDC1 250412Z 29010KT 11/M05 A3017 RMK A01 T01121052  RH  031%=      5-min Rain = 0
KDC1 250413Z 29010KT 11/M05 A3017 RMK A01 T01121053  RH  031%=      5-min Rain = 0
KDC1 250414Z 29010KT 11/M05 A3017 RMK A01 T01121053  RH  031%=      5-min Rain = 0
KDC1 250415Z 29010KT 11/M05 A3017 RMK A01 T01121053  RH  031%=      5-min Rain = 0
KDC1 250416Z 29011KT 11/M05 A3017 RMK A01 T01121054  RH  031%=      5-min Rain = 0
KDC1 250417Z 29011KT 11/M06 A3017 RMK A01 T01141056  RH  030%=      5-min Rain = 0
KDC1 250418Z 29011KT 12/M06 A3017 RMK A01 T01151057  RH  029%=      5-min Rain = 0
KDC1 250419Z 29010KT 12/M06 A3017 RMK A01 T01161057  RH  029%=      5-min Rain = 0
KDC1 250420Z 29010KT 12/M06 A3017 RMK A01 T01161057  RH  029%=      5-min Rain = 0
KDC1 250421Z 29010KT 12/M06 A3017 RMK A01 T01151055  RH  030%=      5-min Rain = 0
KDC1 250422Z 29011KT 11/M05 A3017 RMK A01 T01141053  RH  031%=      5-min Rain = 0
KDC1 250423Z 29010KT 11/M05 A3017 RMK A01 T01131053  RH  031%=      5-min Rain = 0
KDC1 250424Z 29010KT 11/M05 A3017 RMK A01 T01131053  RH  031%=      5-min Rain = 0
KDC1 250425Z 29010KT 11/M05 A3017 RMK A01 T01131052  RH  031%=      5-min Rain = 0
KDC1 250426Z 29010KT 11/M05 A3017 RMK A01 T01121051  RH  031%=      5-min Rain = 0
KDC1 250427Z 29010KT 11/M05 A3017 RMK A01 T01121052  RH  031%=      5-min Rain = 0
KDC1 250428Z 29010KT 11/M05 A3017 RMK A01 T01121051  RH  031%=      5-min Rain = 0
KDC1 250429Z 29010KT 11/M05 A3017 RMK A01 T01121052  RH  031%=      5-min Rain = 0
KDC1 250430Z 29010KT 11/M05 A3017 RMK A01 T01121052  RH  031%=      5-min Rain = 0
KDC1 250431Z 29010KT 11/M05 A3017 RMK A01 T01121053  RH  031%=      5-min Rain = 0
KDC1 250432Z 29011KT 11/M05 A3017 RMK A01 T01121054  RH  031%=      5-min Rain = 0
KDC1 250433Z 29010KT 11/M05 A3017 RMK A01 T01131053  RH  031%=      5-min Rain = 0
KDC1 250434Z 29011KT 11/M05 A3017 RMK A01 T01131053  RH  031%=      5-min Rain = 0
KDC1 250435Z 29011KT 11/M05 A3017 RMK A01 T01131053  RH  031%=      5-min Rain = 0
KDC1 250436Z 29011KT 11/M05 A3017 RMK A01 T01131054  RH  031%=      5-min Rain = 0
KDC1 250437Z 29010KT 11/M05 A3017 RMK A01 T01131054  RH  031%=      5-min Rain = 0
KDC1 250438Z 29010KT 11/M06 A3017 RMK A01 T01121055  RH  031%=      5-min Rain = 0
KDC1 250439Z 29010KT 11/M05 A3017 RMK A01 T01111054  RH  031%=      5-min Rain = 0
KDC1 250440Z 29010KT 11/M05 A3017 RMK A01 T01111054  RH  031%=      5-min Rain = 0
KDC1 250441Z 29010KT 11/M05 A3017 RMK A01 T01101054  RH  031%=      5-min Rain = 0
KDC1 250442Z 29010KT 11/M05 A3017 RMK A01 T01101053  RH  031%=      5-min Rain = 0
KDC1 250443Z 29010KT 11/M05 A3017 RMK A01 T01091053  RH  032%=      5-min Rain = 0
KDC1 250444Z 29009KT 11/M05 A3017 RMK A01 T01091053  RH  032%=      5-min Rain = 0
KDC1 250445Z 29009KT 11/M05 A3017 RMK A01 T01081053  RH  032%=      5-min Rain = 0
KDC1 250446Z 29010KT 11/M05 A3017 RMK A01 T01081052  RH  032%=      5-min Rain = 0
KDC1 250447Z 29010KT 11/M05 A3017 RMK A01 T01071053  RH  032%=      5-min Rain = 0
KDC1 250448Z 29010KT 11/M05 A3017 RMK A01 T01071053  RH  032%=      5-min Rain = 0
KDC1 250449Z 30009KT 11/M05 A3017 RMK A01 T01071054  RH  032%=      5-min Rain = 0
KDC1 250450Z 30009KT 11/M06 A3017 RMK A01 T01081056  RH  031%=      5-min Rain = 0
KDC1 250451Z 30009KT 11/M06 A3017 RMK A01 T01091055  RH  031%=      5-min Rain = 0
KDC1 250452Z 30009KT 11/M05 A3017 RMK A01 T01091053  RH  032%=      5-min Rain = 0
KDC1 250453Z 30009KT 11/M05 A3017 RMK A01 T01101052  RH  032%=      5-min Rain = 0
KDC1 250454Z 30008KT 11/M05 A3017 RMK A01 T01111051  RH  032%=      5-min Rain = 0
KDC1 250455Z 31008KT 11/M05 A3017 RMK A01 T01111051  RH  032%=      5-min Rain = 0
KDC1 250456Z 31006KT 11/M05 A3017 RMK A01 T01111053  RH  031%=      5-min Rain = 0
KDC1 250457Z 34004KT 11/M06 A3018 RMK A01 T01121057  RH  030%=      5-min Rain = 0
KDC1 250458Z 02004KT 11/M06 A3018 RMK A01 T01111060  RH  029%=      5-min Rain = 0
KDC1 250459Z 03006KT 11/M05 A3018 RMK A01 T01111054  RH  031%=      5-min Rain = 0

Page generated in 0.0363 seconds.